<?xml version="1.0" encoding="UTF-8" standalone="no" ?>
<gpx xmlns="http://www.topografix.com/GPX/1/1" xmlns:xsi="http://www.w3.org/2001/XMLSchema-instance" xsi:schemaLocation="http://www.topografix.com/GPX/1/1 http://www.topografix.com/GPX/1/1/gpx.xsd" version="1.1" creator="VisuGPX - https://www.visugpx.com">
  <metadata>
    <name>reconnaissance circuit La Burthe le matin 31 06 2018</name>
    <desc><![CDATA[Reconnaissance du circuit de la Burthe le matin  le 31 06 2018]]></desc>
  </metadata>
  <trk>
    <name><![CDATA[Tracé 31 mai 2018 09:02:05]]></name>
    <trkseg>
      <trkpt lat="44.83907" lon="-0.50201">
        <ele>13.9</ele>
        <time>2018-05-31T07:02:05Z</time>
      </trkpt>
      <trkpt lat="44.83907" lon="-0.50201">
        <ele>13.9</ele>
        <time>2018-05-31T07:02:17Z</time>
      </trkpt>
      <trkpt lat="44.83369" lon="-0.50447">
        <ele>14.2</ele>
        <time>2018-05-31T07:02:21Z</time>
      </trkpt>
      <trkpt lat="44.83378" lon="-0.50444">
        <ele>14.2</ele>
        <time>2018-05-31T07:02:45Z</time>
      </trkpt>
      <trkpt lat="44.83386" lon="-0.50443">
        <ele>14.2</ele>
        <time>2018-05-31T07:03:01Z</time>
      </trkpt>
      <trkpt lat="44.83394" lon="-0.50447">
        <ele>14.2</ele>
        <time>2018-05-31T07:03:09Z</time>
      </trkpt>
      <trkpt lat="44.83396" lon="-0.50459">
        <ele>14.2</ele>
        <time>2018-05-31T07:03:24Z</time>
      </trkpt>
      <trkpt lat="44.83398" lon="-0.50471">
        <ele>14.2</ele>
        <time>2018-05-31T07:03:30Z</time>
      </trkpt>
      <trkpt lat="44.834" lon="-0.50483">
        <ele>14.2</ele>
        <time>2018-05-31T07:03:37Z</time>
      </trkpt>
      <trkpt lat="44.83404" lon="-0.50494">
        <ele>14.2</ele>
        <time>2018-05-31T07:03:44Z</time>
      </trkpt>
      <trkpt lat="44.83409" lon="-0.50504">
        <ele>14.3</ele>
        <time>2018-05-31T07:03:51Z</time>
      </trkpt>
      <trkpt lat="44.83413" lon="-0.50514">
        <ele>14.3</ele>
        <time>2018-05-31T07:03:58Z</time>
      </trkpt>
      <trkpt lat="44.83416" lon="-0.50525">
        <ele>14.2</ele>
        <time>2018-05-31T07:04:05Z</time>
      </trkpt>
      <trkpt lat="44.83422" lon="-0.50535">
        <ele>14.3</ele>
        <time>2018-05-31T07:04:12Z</time>
      </trkpt>
      <trkpt lat="44.83427" lon="-0.50545">
        <ele>14.5</ele>
        <time>2018-05-31T07:04:19Z</time>
      </trkpt>
      <trkpt lat="44.83431" lon="-0.50556">
        <ele>14.7</ele>
        <time>2018-05-31T07:04:26Z</time>
      </trkpt>
      <trkpt lat="44.83435" lon="-0.50567">
        <ele>14.9</ele>
        <time>2018-05-31T07:04:34Z</time>
      </trkpt>
      <trkpt lat="44.8344" lon="-0.50576">
        <ele>15.1</ele>
        <time>2018-05-31T07:04:41Z</time>
      </trkpt>
      <trkpt lat="44.83446" lon="-0.50584">
        <ele>15.2</ele>
        <time>2018-05-31T07:04:49Z</time>
      </trkpt>
      <trkpt lat="44.83452" lon="-0.50592">
        <ele>15.4</ele>
        <time>2018-05-31T07:04:56Z</time>
      </trkpt>
      <trkpt lat="44.83457" lon="-0.50603">
        <ele>15.5</ele>
        <time>2018-05-31T07:05:03Z</time>
      </trkpt>
      <trkpt lat="44.83464" lon="-0.50609">
        <ele>15.7</ele>
        <time>2018-05-31T07:05:09Z</time>
      </trkpt>
      <trkpt lat="44.83472" lon="-0.50614">
        <ele>15.9</ele>
        <time>2018-05-31T07:05:16Z</time>
      </trkpt>
      <trkpt lat="44.83479" lon="-0.50622">
        <ele>15.9</ele>
        <time>2018-05-31T07:05:26Z</time>
      </trkpt>
      <trkpt lat="44.83486" lon="-0.50627">
        <ele>15.9</ele>
        <time>2018-05-31T07:05:35Z</time>
      </trkpt>
      <trkpt lat="44.83495" lon="-0.50631">
        <ele>15.8</ele>
        <time>2018-05-31T07:05:44Z</time>
      </trkpt>
      <trkpt lat="44.83504" lon="-0.50628">
        <ele>15.8</ele>
        <time>2018-05-31T07:05:53Z</time>
      </trkpt>
      <trkpt lat="44.83512" lon="-0.5063">
        <ele>15.9</ele>
        <time>2018-05-31T07:06:01Z</time>
      </trkpt>
      <trkpt lat="44.8352" lon="-0.50633">
        <ele>15.9</ele>
        <time>2018-05-31T07:06:10Z</time>
      </trkpt>
      <trkpt lat="44.83527" lon="-0.50638">
        <ele>16.1</ele>
        <time>2018-05-31T07:06:15Z</time>
      </trkpt>
      <trkpt lat="44.83535" lon="-0.50644">
        <ele>16.1</ele>
        <time>2018-05-31T07:06:22Z</time>
      </trkpt>
      <trkpt lat="44.83543" lon="-0.50646">
        <ele>15.9</ele>
        <time>2018-05-31T07:06:29Z</time>
      </trkpt>
      <trkpt lat="44.83552" lon="-0.50647">
        <ele>16.1</ele>
        <time>2018-05-31T07:06:37Z</time>
      </trkpt>
      <trkpt lat="44.8356" lon="-0.50648">
        <ele>16.5</ele>
        <time>2018-05-31T07:06:46Z</time>
      </trkpt>
      <trkpt lat="44.83568" lon="-0.5065">
        <ele>16.1</ele>
        <time>2018-05-31T07:06:54Z</time>
      </trkpt>
      <trkpt lat="44.83576" lon="-0.50651">
        <ele>16.2</ele>
        <time>2018-05-31T07:07:00Z</time>
      </trkpt>
      <trkpt lat="44.83584" lon="-0.5065">
        <ele>16.4</ele>
        <time>2018-05-31T07:07:07Z</time>
      </trkpt>
      <trkpt lat="44.83593" lon="-0.50652">
        <ele>15.8</ele>
        <time>2018-05-31T07:07:15Z</time>
      </trkpt>
      <trkpt lat="44.83602" lon="-0.50653">
        <ele>15.3</ele>
        <time>2018-05-31T07:07:21Z</time>
      </trkpt>
      <trkpt lat="44.8361" lon="-0.50648">
        <ele>15.4</ele>
        <time>2018-05-31T07:07:28Z</time>
      </trkpt>
      <trkpt lat="44.83617" lon="-0.50643">
        <ele>14.3</ele>
        <time>2018-05-31T07:07:35Z</time>
      </trkpt>
      <trkpt lat="44.83624" lon="-0.50636">
        <ele>13.3</ele>
        <time>2018-05-31T07:07:41Z</time>
      </trkpt>
      <trkpt lat="44.8363" lon="-0.50626">
        <ele>7.8</ele>
        <time>2018-05-31T07:07:49Z</time>
      </trkpt>
      <trkpt lat="44.83634" lon="-0.50636">
        <ele>10.7</ele>
        <time>2018-05-31T07:08:08Z</time>
      </trkpt>
      <trkpt lat="44.83637" lon="-0.50647">
        <ele>12.3</ele>
        <time>2018-05-31T07:08:15Z</time>
      </trkpt>
      <trkpt lat="44.83639" lon="-0.50659">
        <ele>13.8</ele>
        <time>2018-05-31T07:08:25Z</time>
      </trkpt>
      <trkpt lat="44.83641" lon="-0.50671">
        <ele>10.2</ele>
        <time>2018-05-31T07:08:35Z</time>
      </trkpt>
      <trkpt lat="44.83641" lon="-0.50683">
        <ele>9.7</ele>
        <time>2018-05-31T07:08:40Z</time>
      </trkpt>
      <trkpt lat="44.83643" lon="-0.50694">
        <ele>9.8</ele>
        <time>2018-05-31T07:08:47Z</time>
      </trkpt>
      <trkpt lat="44.83646" lon="-0.50705">
        <ele>9.4</ele>
        <time>2018-05-31T07:08:55Z</time>
      </trkpt>
      <trkpt lat="44.83647" lon="-0.50717">
        <ele>7.6</ele>
        <time>2018-05-31T07:09:03Z</time>
      </trkpt>
      <trkpt lat="44.83649" lon="-0.50729">
        <ele>3.6</ele>
        <time>2018-05-31T07:09:10Z</time>
      </trkpt>
      <trkpt lat="44.83653" lon="-0.5074">
        <ele>3.9</ele>
        <time>2018-05-31T07:09:17Z</time>
      </trkpt>
      <trkpt lat="44.83659" lon="-0.50748">
        <ele>5.3</ele>
        <time>2018-05-31T07:09:24Z</time>
      </trkpt>
      <trkpt lat="44.83663" lon="-0.50759">
        <ele>6.1</ele>
        <time>2018-05-31T07:09:29Z</time>
      </trkpt>
      <trkpt lat="44.83668" lon="-0.50769">
        <ele>7.4</ele>
        <time>2018-05-31T07:09:35Z</time>
      </trkpt>
      <trkpt lat="44.8367" lon="-0.50779">
        <ele>7.8</ele>
        <time>2018-05-31T07:09:41Z</time>
      </trkpt>
      <trkpt lat="44.83673" lon="-0.5079">
        <ele>7</ele>
        <time>2018-05-31T07:09:48Z</time>
      </trkpt>
      <trkpt lat="44.83676" lon="-0.508">
        <ele>8</ele>
        <time>2018-05-31T07:09:55Z</time>
      </trkpt>
      <trkpt lat="44.83678" lon="-0.50811">
        <ele>10.6</ele>
        <time>2018-05-31T07:10:01Z</time>
      </trkpt>
      <trkpt lat="44.83677" lon="-0.50823">
        <ele>10.4</ele>
        <time>2018-05-31T07:10:09Z</time>
      </trkpt>
      <trkpt lat="44.83679" lon="-0.50835">
        <ele>9.5</ele>
        <time>2018-05-31T07:10:15Z</time>
      </trkpt>
      <trkpt lat="44.83682" lon="-0.50845">
        <ele>7.5</ele>
        <time>2018-05-31T07:10:23Z</time>
      </trkpt>
      <trkpt lat="44.83682" lon="-0.50857">
        <ele>6.4</ele>
        <time>2018-05-31T07:10:30Z</time>
      </trkpt>
      <trkpt lat="44.8368" lon="-0.50869">
        <ele>9.5</ele>
        <time>2018-05-31T07:10:38Z</time>
      </trkpt>
      <trkpt lat="44.83678" lon="-0.5088">
        <ele>8.7</ele>
        <time>2018-05-31T07:10:43Z</time>
      </trkpt>
      <trkpt lat="44.83677" lon="-0.50891">
        <ele>10.2</ele>
        <time>2018-05-31T07:10:49Z</time>
      </trkpt>
      <trkpt lat="44.83676" lon="-0.50902">
        <ele>12.2</ele>
        <time>2018-05-31T07:10:55Z</time>
      </trkpt>
      <trkpt lat="44.83679" lon="-0.50914">
        <ele>5.7</ele>
        <time>2018-05-31T07:11:03Z</time>
      </trkpt>
      <trkpt lat="44.83673" lon="-0.50922">
        <ele>56.9</ele>
        <time>2018-05-31T07:11:12Z</time>
      </trkpt>
      <trkpt lat="44.83668" lon="-0.50931">
        <ele>-2</ele>
        <time>2018-05-31T07:11:19Z</time>
      </trkpt>
      <trkpt lat="44.83663" lon="-0.5094">
        <ele>-2.4</ele>
        <time>2018-05-31T07:11:26Z</time>
      </trkpt>
      <trkpt lat="44.83657" lon="-0.50947">
        <ele>-2.1</ele>
        <time>2018-05-31T07:11:31Z</time>
      </trkpt>
      <trkpt lat="44.83652" lon="-0.50957">
        <ele>-1.4</ele>
        <time>2018-05-31T07:11:38Z</time>
      </trkpt>
      <trkpt lat="44.83647" lon="-0.50965">
        <ele>2.2</ele>
        <time>2018-05-31T07:11:44Z</time>
      </trkpt>
      <trkpt lat="44.83643" lon="-0.50975">
        <ele>6.9</ele>
        <time>2018-05-31T07:11:52Z</time>
      </trkpt>
      <trkpt lat="44.83638" lon="-0.50985">
        <ele>7.8</ele>
        <time>2018-05-31T07:12:00Z</time>
      </trkpt>
      <trkpt lat="44.83632" lon="-0.50991">
        <ele>6.5</ele>
        <time>2018-05-31T07:12:05Z</time>
      </trkpt>
      <trkpt lat="44.83625" lon="-0.50997">
        <ele>6.2</ele>
        <time>2018-05-31T07:12:11Z</time>
      </trkpt>
      <trkpt lat="44.83616" lon="-0.51">
        <ele>1.2</ele>
        <time>2018-05-31T07:12:19Z</time>
      </trkpt>
      <trkpt lat="44.83608" lon="-0.51004">
        <ele>-2.4</ele>
        <time>2018-05-31T07:12:27Z</time>
      </trkpt>
      <trkpt lat="44.83599" lon="-0.51003">
        <ele>-10.7</ele>
        <time>2018-05-31T07:12:38Z</time>
      </trkpt>
      <trkpt lat="44.83592" lon="-0.51007">
        <ele>-10.2</ele>
        <time>2018-05-31T07:12:45Z</time>
      </trkpt>
      <trkpt lat="44.83584" lon="-0.51005">
        <ele>-9</ele>
        <time>2018-05-31T07:12:52Z</time>
      </trkpt>
      <trkpt lat="44.83575" lon="-0.51003">
        <ele>-6.5</ele>
        <time>2018-05-31T07:12:58Z</time>
      </trkpt>
      <trkpt lat="44.83568" lon="-0.51">
        <ele>-4.4</ele>
        <time>2018-05-31T07:13:03Z</time>
      </trkpt>
      <trkpt lat="44.83559" lon="-0.51">
        <ele>-2.1</ele>
        <time>2018-05-31T07:13:13Z</time>
      </trkpt>
      <trkpt lat="44.83551" lon="-0.50999">
        <ele>-3.2</ele>
        <time>2018-05-31T07:13:21Z</time>
      </trkpt>
      <trkpt lat="44.83542" lon="-0.51">
        <ele>-4.3</ele>
        <time>2018-05-31T07:13:28Z</time>
      </trkpt>
      <trkpt lat="44.83533" lon="-0.50998">
        <ele>-6.1</ele>
        <time>2018-05-31T07:13:35Z</time>
      </trkpt>
      <trkpt lat="44.83525" lon="-0.50998">
        <ele>-6.4</ele>
        <time>2018-05-31T07:13:44Z</time>
      </trkpt>
      <trkpt lat="44.83517" lon="-0.50997">
        <ele>-5.8</ele>
        <time>2018-05-31T07:13:51Z</time>
      </trkpt>
      <trkpt lat="44.83508" lon="-0.50995">
        <ele>-8.7</ele>
        <time>2018-05-31T07:13:57Z</time>
      </trkpt>
      <trkpt lat="44.835" lon="-0.50995">
        <ele>-12.5</ele>
        <time>2018-05-31T07:14:05Z</time>
      </trkpt>
      <trkpt lat="44.83492" lon="-0.50997">
        <ele>-11.3</ele>
        <time>2018-05-31T07:14:12Z</time>
      </trkpt>
      <trkpt lat="44.83483" lon="-0.51">
        <ele>-12.6</ele>
        <time>2018-05-31T07:14:17Z</time>
      </trkpt>
      <trkpt lat="44.83474" lon="-0.51001">
        <ele>-13.1</ele>
        <time>2018-05-31T07:14:22Z</time>
      </trkpt>
      <trkpt lat="44.83466" lon="-0.51005">
        <ele>-7.5</ele>
        <time>2018-05-31T07:14:28Z</time>
      </trkpt>
      <trkpt lat="44.83457" lon="-0.51007">
        <ele>-2.1</ele>
        <time>2018-05-31T07:14:34Z</time>
      </trkpt>
      <trkpt lat="44.83448" lon="-0.51008">
        <ele>1.1</ele>
        <time>2018-05-31T07:14:41Z</time>
      </trkpt>
      <trkpt lat="44.83441" lon="-0.51011">
        <ele>0.3</ele>
        <time>2018-05-31T07:14:47Z</time>
      </trkpt>
      <trkpt lat="44.83432" lon="-0.51011">
        <ele>-7.9</ele>
        <time>2018-05-31T07:14:57Z</time>
      </trkpt>
      <trkpt lat="44.83425" lon="-0.51012">
        <ele>-9.3</ele>
        <time>2018-05-31T07:15:01Z</time>
      </trkpt>
      <trkpt lat="44.83417" lon="-0.51015">
        <ele>-10.1</ele>
        <time>2018-05-31T07:15:05Z</time>
      </trkpt>
      <trkpt lat="44.8341" lon="-0.51023">
        <ele>-14.3</ele>
        <time>2018-05-31T07:15:14Z</time>
      </trkpt>
      <trkpt lat="44.83404" lon="-0.51029">
        <ele>-18.2</ele>
        <time>2018-05-31T07:15:22Z</time>
      </trkpt>
      <trkpt lat="44.83396" lon="-0.51031">
        <ele>-17.8</ele>
        <time>2018-05-31T07:15:27Z</time>
      </trkpt>
      <trkpt lat="44.83386" lon="-0.51035">
        <ele>-16.1</ele>
        <time>2018-05-31T07:15:32Z</time>
      </trkpt>
      <trkpt lat="44.83379" lon="-0.51034">
        <ele>-14.4</ele>
        <time>2018-05-31T07:15:38Z</time>
      </trkpt>
      <trkpt lat="44.83371" lon="-0.51032">
        <ele>-13.3</ele>
        <time>2018-05-31T07:15:42Z</time>
      </trkpt>
      <trkpt lat="44.83362" lon="-0.51029">
        <ele>-11.8</ele>
        <time>2018-05-31T07:15:47Z</time>
      </trkpt>
      <trkpt lat="44.83353" lon="-0.51025">
        <ele>-12.4</ele>
        <time>2018-05-31T07:15:55Z</time>
      </trkpt>
      <trkpt lat="44.83347" lon="-0.51017">
        <ele>-17.6</ele>
        <time>2018-05-31T07:16:05Z</time>
      </trkpt>
      <trkpt lat="44.8334" lon="-0.5101">
        <ele>-17.9</ele>
        <time>2018-05-31T07:16:14Z</time>
      </trkpt>
      <trkpt lat="44.83331" lon="-0.51008">
        <ele>-15</ele>
        <time>2018-05-31T07:16:19Z</time>
      </trkpt>
      <trkpt lat="44.83321" lon="-0.51009">
        <ele>-14</ele>
        <time>2018-05-31T07:16:23Z</time>
      </trkpt>
      <trkpt lat="44.83314" lon="-0.51009">
        <ele>-9.3</ele>
        <time>2018-05-31T07:16:27Z</time>
      </trkpt>
      <trkpt lat="44.83307" lon="-0.51003">
        <ele>-8.6</ele>
        <time>2018-05-31T07:16:33Z</time>
      </trkpt>
      <trkpt lat="44.833" lon="-0.50998">
        <ele>-4.8</ele>
        <time>2018-05-31T07:16:43Z</time>
      </trkpt>
      <trkpt lat="44.83291" lon="-0.50997">
        <ele>-3.7</ele>
        <time>2018-05-31T07:16:51Z</time>
      </trkpt>
      <trkpt lat="44.83284" lon="-0.51002">
        <ele>-3.1</ele>
        <time>2018-05-31T07:16:56Z</time>
      </trkpt>
      <trkpt lat="44.83275" lon="-0.51003">
        <ele>-1.1</ele>
        <time>2018-05-31T07:17:01Z</time>
      </trkpt>
      <trkpt lat="44.83268" lon="-0.51007">
        <ele>1.9</ele>
        <time>2018-05-31T07:17:05Z</time>
      </trkpt>
      <trkpt lat="44.83261" lon="-0.51011">
        <ele>4</ele>
        <time>2018-05-31T07:17:09Z</time>
      </trkpt>
      <trkpt lat="44.83253" lon="-0.51015">
        <ele>1.5</ele>
        <time>2018-05-31T07:17:16Z</time>
      </trkpt>
      <trkpt lat="44.83246" lon="-0.51014">
        <ele>0.6</ele>
        <time>2018-05-31T07:17:22Z</time>
      </trkpt>
      <trkpt lat="44.83237" lon="-0.51015">
        <ele>-2.1</ele>
        <time>2018-05-31T07:17:28Z</time>
      </trkpt>
      <trkpt lat="44.83228" lon="-0.51016">
        <ele>-5.7</ele>
        <time>2018-05-31T07:17:34Z</time>
      </trkpt>
      <trkpt lat="44.83222" lon="-0.51022">
        <ele>-4.4</ele>
        <time>2018-05-31T07:17:40Z</time>
      </trkpt>
      <trkpt lat="44.83212" lon="-0.51023">
        <ele>-1.9</ele>
        <time>2018-05-31T07:17:45Z</time>
      </trkpt>
      <trkpt lat="44.83204" lon="-0.51024">
        <ele>-3.1</ele>
        <time>2018-05-31T07:17:50Z</time>
      </trkpt>
      <trkpt lat="44.83197" lon="-0.51025">
        <ele>-12.3</ele>
        <time>2018-05-31T07:18:04Z</time>
      </trkpt>
      <trkpt lat="44.83188" lon="-0.51026">
        <ele>-13.8</ele>
        <time>2018-05-31T07:18:09Z</time>
      </trkpt>
      <trkpt lat="44.83179" lon="-0.51027">
        <ele>-14.3</ele>
        <time>2018-05-31T07:18:14Z</time>
      </trkpt>
      <trkpt lat="44.83172" lon="-0.51029">
        <ele>-13.7</ele>
        <time>2018-05-31T07:18:20Z</time>
      </trkpt>
      <trkpt lat="44.83163" lon="-0.51029">
        <ele>-15.7</ele>
        <time>2018-05-31T07:18:26Z</time>
      </trkpt>
      <trkpt lat="44.83156" lon="-0.51029">
        <ele>-16</ele>
        <time>2018-05-31T07:18:31Z</time>
      </trkpt>
      <trkpt lat="44.83149" lon="-0.51029">
        <ele>-15.1</ele>
        <time>2018-05-31T07:18:36Z</time>
      </trkpt>
      <trkpt lat="44.8314" lon="-0.51028">
        <ele>-23.4</ele>
        <time>2018-05-31T07:18:44Z</time>
      </trkpt>
      <trkpt lat="44.83134" lon="-0.51037">
        <ele>-43.7</ele>
        <time>2018-05-31T07:18:56Z</time>
      </trkpt>
      <trkpt lat="44.83127" lon="-0.51036">
        <ele>-63.6</ele>
        <time>2018-05-31T07:19:07Z</time>
      </trkpt>
      <trkpt lat="44.83117" lon="-0.51031">
        <ele>-63.3</ele>
        <time>2018-05-31T07:19:12Z</time>
      </trkpt>
      <trkpt lat="44.83109" lon="-0.51037">
        <ele>-58.9</ele>
        <time>2018-05-31T07:19:22Z</time>
      </trkpt>
      <trkpt lat="44.831" lon="-0.51038">
        <ele>-56.4</ele>
        <time>2018-05-31T07:19:26Z</time>
      </trkpt>
      <trkpt lat="44.83094" lon="-0.51038">
        <ele>-50.3</ele>
        <time>2018-05-31T07:19:38Z</time>
      </trkpt>
      <trkpt lat="44.83087" lon="-0.51041">
        <ele>-41.7</ele>
        <time>2018-05-31T07:19:42Z</time>
      </trkpt>
      <trkpt lat="44.83078" lon="-0.51045">
        <ele>-37.4</ele>
        <time>2018-05-31T07:19:47Z</time>
      </trkpt>
      <trkpt lat="44.8307" lon="-0.51045">
        <ele>-32</ele>
        <time>2018-05-31T07:19:52Z</time>
      </trkpt>
      <trkpt lat="44.83062" lon="-0.51047">
        <ele>-25.3</ele>
        <time>2018-05-31T07:19:57Z</time>
      </trkpt>
      <trkpt lat="44.83055" lon="-0.51049">
        <ele>-15.7</ele>
        <time>2018-05-31T07:20:02Z</time>
      </trkpt>
      <trkpt lat="44.83043" lon="-0.51053">
        <ele>-5.1</ele>
        <time>2018-05-31T07:20:07Z</time>
      </trkpt>
      <trkpt lat="44.83036" lon="-0.51059">
        <ele>-0.6</ele>
        <time>2018-05-31T07:20:12Z</time>
      </trkpt>
      <trkpt lat="44.83027" lon="-0.5106">
        <ele>4.3</ele>
        <time>2018-05-31T07:20:20Z</time>
      </trkpt>
      <trkpt lat="44.83023" lon="-0.51052">
        <ele>-3.2</ele>
        <time>2018-05-31T07:20:29Z</time>
      </trkpt>
      <trkpt lat="44.83017" lon="-0.51044">
        <ele>-20</ele>
        <time>2018-05-31T07:20:37Z</time>
      </trkpt>
      <trkpt lat="44.83009" lon="-0.5104">
        <ele>-21.1</ele>
        <time>2018-05-31T07:20:43Z</time>
      </trkpt>
      <trkpt lat="44.83002" lon="-0.51041">
        <ele>-23.2</ele>
        <time>2018-05-31T07:20:48Z</time>
      </trkpt>
      <trkpt lat="44.82994" lon="-0.51045">
        <ele>-25.9</ele>
        <time>2018-05-31T07:20:53Z</time>
      </trkpt>
      <trkpt lat="44.82986" lon="-0.51048">
        <ele>-29.6</ele>
        <time>2018-05-31T07:21:03Z</time>
      </trkpt>
      <trkpt lat="44.82977" lon="-0.51046">
        <ele>-28.9</ele>
        <time>2018-05-31T07:21:09Z</time>
      </trkpt>
      <trkpt lat="44.8297" lon="-0.5105">
        <ele>-26.9</ele>
        <time>2018-05-31T07:21:13Z</time>
      </trkpt>
      <trkpt lat="44.82961" lon="-0.51052">
        <ele>-30.7</ele>
        <time>2018-05-31T07:21:22Z</time>
      </trkpt>
      <trkpt lat="44.82954" lon="-0.51058">
        <ele>-35.8</ele>
        <time>2018-05-31T07:21:30Z</time>
      </trkpt>
      <trkpt lat="44.82946" lon="-0.51059">
        <ele>-37.7</ele>
        <time>2018-05-31T07:21:35Z</time>
      </trkpt>
      <trkpt lat="44.82938" lon="-0.51062">
        <ele>-37.7</ele>
        <time>2018-05-31T07:21:42Z</time>
      </trkpt>
      <trkpt lat="44.8293" lon="-0.51064">
        <ele>-37.4</ele>
        <time>2018-05-31T07:21:49Z</time>
      </trkpt>
      <trkpt lat="44.82921" lon="-0.51065">
        <ele>-35.8</ele>
        <time>2018-05-31T07:21:54Z</time>
      </trkpt>
      <trkpt lat="44.82915" lon="-0.5107">
        <ele>-35.8</ele>
        <time>2018-05-31T07:22:00Z</time>
      </trkpt>
      <trkpt lat="44.82907" lon="-0.51075">
        <ele>-32.3</ele>
        <time>2018-05-31T07:22:09Z</time>
      </trkpt>
      <trkpt lat="44.82898" lon="-0.51076">
        <ele>-27</ele>
        <time>2018-05-31T07:22:19Z</time>
      </trkpt>
      <trkpt lat="44.8289" lon="-0.51076">
        <ele>-27.3</ele>
        <time>2018-05-31T07:22:26Z</time>
      </trkpt>
      <trkpt lat="44.82882" lon="-0.5107">
        <ele>-27.3</ele>
        <time>2018-05-31T07:22:35Z</time>
      </trkpt>
      <trkpt lat="44.82875" lon="-0.51064">
        <ele>-29.4</ele>
        <time>2018-05-31T07:22:44Z</time>
      </trkpt>
      <trkpt lat="44.82866" lon="-0.5106">
        <ele>-30.5</ele>
        <time>2018-05-31T07:22:53Z</time>
      </trkpt>
      <trkpt lat="44.82858" lon="-0.51056">
        <ele>-30.5</ele>
        <time>2018-05-31T07:22:59Z</time>
      </trkpt>
      <trkpt lat="44.8285" lon="-0.51054">
        <ele>-29.9</ele>
        <time>2018-05-31T07:23:08Z</time>
      </trkpt>
      <trkpt lat="44.82843" lon="-0.51048">
        <ele>-33.1</ele>
        <time>2018-05-31T07:23:21Z</time>
      </trkpt>
      <trkpt lat="44.82834" lon="-0.51052">
        <ele>-37.5</ele>
        <time>2018-05-31T07:23:42Z</time>
      </trkpt>
      <trkpt lat="44.82824" lon="-0.51049">
        <ele>-31.5</ele>
        <time>2018-05-31T07:23:47Z</time>
      </trkpt>
      <trkpt lat="44.82816" lon="-0.5105">
        <ele>-27.9</ele>
        <time>2018-05-31T07:23:58Z</time>
      </trkpt>
      <trkpt lat="44.82807" lon="-0.51045">
        <ele>-31.6</ele>
        <time>2018-05-31T07:24:07Z</time>
      </trkpt>
      <trkpt lat="44.828" lon="-0.51041">
        <ele>-31.4</ele>
        <time>2018-05-31T07:24:14Z</time>
      </trkpt>
      <trkpt lat="44.82792" lon="-0.51035">
        <ele>-28.9</ele>
        <time>2018-05-31T07:24:24Z</time>
      </trkpt>
      <trkpt lat="44.82784" lon="-0.5103">
        <ele>-32.3</ele>
        <time>2018-05-31T07:24:31Z</time>
      </trkpt>
      <trkpt lat="44.82778" lon="-0.51023">
        <ele>-29</ele>
        <time>2018-05-31T07:24:39Z</time>
      </trkpt>
      <trkpt lat="44.82773" lon="-0.51015">
        <ele>-22.7</ele>
        <time>2018-05-31T07:24:47Z</time>
      </trkpt>
      <trkpt lat="44.8277" lon="-0.51003">
        <ele>-23.2</ele>
        <time>2018-05-31T07:24:55Z</time>
      </trkpt>
      <trkpt lat="44.82768" lon="-0.50992">
        <ele>-26.9</ele>
        <time>2018-05-31T07:25:04Z</time>
      </trkpt>
      <trkpt lat="44.82764" lon="-0.50981">
        <ele>-33.7</ele>
        <time>2018-05-31T07:25:11Z</time>
      </trkpt>
      <trkpt lat="44.82758" lon="-0.50972">
        <ele>-47.8</ele>
        <time>2018-05-31T07:25:21Z</time>
      </trkpt>
      <trkpt lat="44.82753" lon="-0.50962">
        <ele>-50.9</ele>
        <time>2018-05-31T07:25:29Z</time>
      </trkpt>
      <trkpt lat="44.82747" lon="-0.50954">
        <ele>-48.1</ele>
        <time>2018-05-31T07:25:34Z</time>
      </trkpt>
      <trkpt lat="44.82742" lon="-0.50944">
        <ele>-47.4</ele>
        <time>2018-05-31T07:25:41Z</time>
      </trkpt>
      <trkpt lat="44.82736" lon="-0.50936">
        <ele>-48.5</ele>
        <time>2018-05-31T07:25:47Z</time>
      </trkpt>
      <trkpt lat="44.82731" lon="-0.50926">
        <ele>-44.9</ele>
        <time>2018-05-31T07:25:53Z</time>
      </trkpt>
      <trkpt lat="44.82724" lon="-0.5092">
        <ele>-43.2</ele>
        <time>2018-05-31T07:25:58Z</time>
      </trkpt>
      <trkpt lat="44.82719" lon="-0.50911">
        <ele>-38.8</ele>
        <time>2018-05-31T07:26:05Z</time>
      </trkpt>
      <trkpt lat="44.82713" lon="-0.50901">
        <ele>-34.2</ele>
        <time>2018-05-31T07:26:12Z</time>
      </trkpt>
      <trkpt lat="44.82709" lon="-0.50892">
        <ele>-33.8</ele>
        <time>2018-05-31T07:26:18Z</time>
      </trkpt>
      <trkpt lat="44.82704" lon="-0.50882">
        <ele>-36.5</ele>
        <time>2018-05-31T07:26:25Z</time>
      </trkpt>
      <trkpt lat="44.82699" lon="-0.50872">
        <ele>-35.7</ele>
        <time>2018-05-31T07:26:33Z</time>
      </trkpt>
      <trkpt lat="44.82694" lon="-0.50862">
        <ele>-36</ele>
        <time>2018-05-31T07:26:42Z</time>
      </trkpt>
      <trkpt lat="44.82685" lon="-0.50859">
        <ele>-39</ele>
        <time>2018-05-31T07:26:52Z</time>
      </trkpt>
      <trkpt lat="44.82677" lon="-0.50861">
        <ele>-38.3</ele>
        <time>2018-05-31T07:27:00Z</time>
      </trkpt>
      <trkpt lat="44.82669" lon="-0.50864">
        <ele>-38.9</ele>
        <time>2018-05-31T07:27:07Z</time>
      </trkpt>
      <trkpt lat="44.82664" lon="-0.50874">
        <ele>-38.5</ele>
        <time>2018-05-31T07:27:15Z</time>
      </trkpt>
      <trkpt lat="44.82658" lon="-0.50882">
        <ele>-35.6</ele>
        <time>2018-05-31T07:27:24Z</time>
      </trkpt>
      <trkpt lat="44.82656" lon="-0.50894">
        <ele>-41.2</ele>
        <time>2018-05-31T07:27:31Z</time>
      </trkpt>
      <trkpt lat="44.82652" lon="-0.50904">
        <ele>-45.9</ele>
        <time>2018-05-31T07:27:37Z</time>
      </trkpt>
      <trkpt lat="44.82646" lon="-0.50912">
        <ele>-45.8</ele>
        <time>2018-05-31T07:27:43Z</time>
      </trkpt>
      <trkpt lat="44.82642" lon="-0.50923">
        <ele>-50.8</ele>
        <time>2018-05-31T07:27:49Z</time>
      </trkpt>
      <trkpt lat="44.82637" lon="-0.50933">
        <ele>-52.2</ele>
        <time>2018-05-31T07:27:57Z</time>
      </trkpt>
      <trkpt lat="44.82634" lon="-0.50944">
        <ele>-51.7</ele>
        <time>2018-05-31T07:28:09Z</time>
      </trkpt>
      <trkpt lat="44.82628" lon="-0.50937">
        <ele>-48.4</ele>
        <time>2018-05-31T07:28:19Z</time>
      </trkpt>
      <trkpt lat="44.82621" lon="-0.5093">
        <ele>-47.7</ele>
        <time>2018-05-31T07:28:26Z</time>
      </trkpt>
      <trkpt lat="44.8262" lon="-0.5092">
        <ele>-49.5</ele>
        <time>2018-05-31T07:28:31Z</time>
      </trkpt>
      <trkpt lat="44.82625" lon="-0.5091">
        <ele>-51.1</ele>
        <time>2018-05-31T07:28:35Z</time>
      </trkpt>
      <trkpt lat="44.82627" lon="-0.50898">
        <ele>-54.2</ele>
        <time>2018-05-31T07:28:47Z</time>
      </trkpt>
      <trkpt lat="44.82614" lon="-0.50895">
        <ele>-55</ele>
        <time>2018-05-31T07:28:51Z</time>
      </trkpt>
      <trkpt lat="44.82608" lon="-0.5089">
        <ele>-54.3</ele>
        <time>2018-05-31T07:28:55Z</time>
      </trkpt>
      <trkpt lat="44.82599" lon="-0.50886">
        <ele>-51.7</ele>
        <time>2018-05-31T07:28:59Z</time>
      </trkpt>
      <trkpt lat="44.82591" lon="-0.50881">
        <ele>-50.1</ele>
        <time>2018-05-31T07:29:05Z</time>
      </trkpt>
      <trkpt lat="44.82583" lon="-0.50877">
        <ele>-49.4</ele>
        <time>2018-05-31T07:29:13Z</time>
      </trkpt>
      <trkpt lat="44.82575" lon="-0.5088">
        <ele>-34.6</ele>
        <time>2018-05-31T07:30:45Z</time>
      </trkpt>
      <trkpt lat="44.82567" lon="-0.50877">
        <ele>-37.3</ele>
        <time>2018-05-31T07:30:54Z</time>
      </trkpt>
      <trkpt lat="44.82559" lon="-0.50872">
        <ele>-41.5</ele>
        <time>2018-05-31T07:31:04Z</time>
      </trkpt>
      <trkpt lat="44.82554" lon="-0.50866">
        <ele>-39.8</ele>
        <time>2018-05-31T07:31:10Z</time>
      </trkpt>
      <trkpt lat="44.82547" lon="-0.50857">
        <ele>-33.3</ele>
        <time>2018-05-31T07:31:26Z</time>
      </trkpt>
      <trkpt lat="44.82548" lon="-0.50844">
        <ele>-29.1</ele>
        <time>2018-05-31T07:31:35Z</time>
      </trkpt>
      <trkpt lat="44.82545" lon="-0.50833">
        <ele>-27.2</ele>
        <time>2018-05-31T07:31:51Z</time>
      </trkpt>
      <trkpt lat="44.8255" lon="-0.50825">
        <ele>-27.8</ele>
        <time>2018-05-31T07:32:05Z</time>
      </trkpt>
      <trkpt lat="44.82555" lon="-0.50815">
        <ele>-33.8</ele>
        <time>2018-05-31T07:32:11Z</time>
      </trkpt>
      <trkpt lat="44.8256" lon="-0.50808">
        <ele>-37.7</ele>
        <time>2018-05-31T07:32:16Z</time>
      </trkpt>
      <trkpt lat="44.82566" lon="-0.50799">
        <ele>-42.2</ele>
        <time>2018-05-31T07:32:22Z</time>
      </trkpt>
      <trkpt lat="44.82571" lon="-0.50791">
        <ele>-43.6</ele>
        <time>2018-05-31T07:32:29Z</time>
      </trkpt>
      <trkpt lat="44.82577" lon="-0.50783">
        <ele>-35.8</ele>
        <time>2018-05-31T07:32:51Z</time>
      </trkpt>
      <trkpt lat="44.82583" lon="-0.50775">
        <ele>-32.2</ele>
        <time>2018-05-31T07:33:01Z</time>
      </trkpt>
      <trkpt lat="44.82591" lon="-0.5077">
        <ele>-27.1</ele>
        <time>2018-05-31T07:33:10Z</time>
      </trkpt>
      <trkpt lat="44.82599" lon="-0.50769">
        <ele>-30.2</ele>
        <time>2018-05-31T07:33:16Z</time>
      </trkpt>
      <trkpt lat="44.82607" lon="-0.50765">
        <ele>-28.3</ele>
        <time>2018-05-31T07:33:26Z</time>
      </trkpt>
      <trkpt lat="44.82616" lon="-0.50767">
        <ele>-32.4</ele>
        <time>2018-05-31T07:33:34Z</time>
      </trkpt>
      <trkpt lat="44.82621" lon="-0.50759">
        <ele>-22.3</ele>
        <time>2018-05-31T07:33:42Z</time>
      </trkpt>
      <trkpt lat="44.82625" lon="-0.50748">
        <ele>-10.8</ele>
        <time>2018-05-31T07:33:50Z</time>
      </trkpt>
      <trkpt lat="44.8263" lon="-0.50738">
        <ele>-17.1</ele>
        <time>2018-05-31T07:34:00Z</time>
      </trkpt>
      <trkpt lat="44.82636" lon="-0.5073">
        <ele>-28.1</ele>
        <time>2018-05-31T07:34:13Z</time>
      </trkpt>
      <trkpt lat="44.82641" lon="-0.50721">
        <ele>-31.2</ele>
        <time>2018-05-31T07:34:20Z</time>
      </trkpt>
      <trkpt lat="44.82645" lon="-0.50711">
        <ele>-29.1</ele>
        <time>2018-05-31T07:34:25Z</time>
      </trkpt>
      <trkpt lat="44.82645" lon="-0.50699">
        <ele>-28.9</ele>
        <time>2018-05-31T07:34:30Z</time>
      </trkpt>
      <trkpt lat="44.82645" lon="-0.50687">
        <ele>-35.3</ele>
        <time>2018-05-31T07:34:40Z</time>
      </trkpt>
      <trkpt lat="44.82649" lon="-0.50676">
        <ele>-37.9</ele>
        <time>2018-05-31T07:34:48Z</time>
      </trkpt>
      <trkpt lat="44.82654" lon="-0.50665">
        <ele>-37.1</ele>
        <time>2018-05-31T07:34:58Z</time>
      </trkpt>
      <trkpt lat="44.8266" lon="-0.50658">
        <ele>-19.4</ele>
        <time>2018-05-31T07:35:21Z</time>
      </trkpt>
      <trkpt lat="44.82667" lon="-0.5065">
        <ele>-10.7</ele>
        <time>2018-05-31T07:35:38Z</time>
      </trkpt>
      <trkpt lat="44.82668" lon="-0.50638">
        <ele>2.6</ele>
        <time>2018-05-31T07:35:45Z</time>
      </trkpt>
      <trkpt lat="44.82669" lon="-0.50627">
        <ele>6.6</ele>
        <time>2018-05-31T07:35:54Z</time>
      </trkpt>
      <trkpt lat="44.82668" lon="-0.50615">
        <ele>5.2</ele>
        <time>2018-05-31T07:36:03Z</time>
      </trkpt>
      <trkpt lat="44.82668" lon="-0.50603">
        <ele>3</ele>
        <time>2018-05-31T07:36:09Z</time>
      </trkpt>
      <trkpt lat="44.82662" lon="-0.50594">
        <ele>-9.5</ele>
        <time>2018-05-31T07:36:27Z</time>
      </trkpt>
      <trkpt lat="44.82667" lon="-0.50583">
        <ele>3.1</ele>
        <time>2018-05-31T07:36:50Z</time>
      </trkpt>
      <trkpt lat="44.82664" lon="-0.50573">
        <ele>-7.1</ele>
        <time>2018-05-31T07:37:03Z</time>
      </trkpt>
      <trkpt lat="44.82664" lon="-0.50561">
        <ele>-13.3</ele>
        <time>2018-05-31T07:37:29Z</time>
      </trkpt>
      <trkpt lat="44.82664" lon="-0.50548">
        <ele>-1.8</ele>
        <time>2018-05-31T07:37:39Z</time>
      </trkpt>
      <trkpt lat="44.82657" lon="-0.50543">
        <ele>-2.4</ele>
        <time>2018-05-31T07:37:56Z</time>
      </trkpt>
      <trkpt lat="44.82653" lon="-0.50535">
        <ele>-10.1</ele>
        <time>2018-05-31T07:38:09Z</time>
      </trkpt>
      <trkpt lat="44.82652" lon="-0.50524">
        <ele>-1.8</ele>
        <time>2018-05-31T07:38:19Z</time>
      </trkpt>
      <trkpt lat="44.82653" lon="-0.50512">
        <ele>0.3</ele>
        <time>2018-05-31T07:38:32Z</time>
      </trkpt>
      <trkpt lat="44.82647" lon="-0.50503">
        <ele>6.6</ele>
        <time>2018-05-31T07:38:59Z</time>
      </trkpt>
      <trkpt lat="44.82641" lon="-0.50495">
        <ele>7.9</ele>
        <time>2018-05-31T07:39:18Z</time>
      </trkpt>
      <trkpt lat="44.82645" lon="-0.50484">
        <ele>10</ele>
        <time>2018-05-31T07:39:29Z</time>
      </trkpt>
      <trkpt lat="44.8264" lon="-0.50477">
        <ele>10.5</ele>
        <time>2018-05-31T07:39:44Z</time>
      </trkpt>
      <trkpt lat="44.82633" lon="-0.50472">
        <ele>15.2</ele>
        <time>2018-05-31T07:39:49Z</time>
      </trkpt>
      <trkpt lat="44.82626" lon="-0.50464">
        <ele>14.6</ele>
        <time>2018-05-31T07:39:58Z</time>
      </trkpt>
      <trkpt lat="44.8262" lon="-0.50455">
        <ele>13.2</ele>
        <time>2018-05-31T07:40:10Z</time>
      </trkpt>
      <trkpt lat="44.82615" lon="-0.50447">
        <ele>21.5</ele>
        <time>2018-05-31T07:40:22Z</time>
      </trkpt>
      <trkpt lat="44.82616" lon="-0.50439">
        <ele>6</ele>
        <time>2018-05-31T07:40:59Z</time>
      </trkpt>
      <trkpt lat="44.82609" lon="-0.50432">
        <ele>11.5</ele>
        <time>2018-05-31T07:41:18Z</time>
      </trkpt>
      <trkpt lat="44.826" lon="-0.50433">
        <ele>5.8</ele>
        <time>2018-05-31T07:41:29Z</time>
      </trkpt>
      <trkpt lat="44.82592" lon="-0.50436">
        <ele>9</ele>
        <time>2018-05-31T07:41:56Z</time>
      </trkpt>
      <trkpt lat="44.82584" lon="-0.50433">
        <ele>10.7</ele>
        <time>2018-05-31T07:42:05Z</time>
      </trkpt>
      <trkpt lat="44.82576" lon="-0.5043">
        <ele>12</ele>
        <time>2018-05-31T07:42:12Z</time>
      </trkpt>
      <trkpt lat="44.82568" lon="-0.50425">
        <ele>12.6</ele>
        <time>2018-05-31T07:42:21Z</time>
      </trkpt>
      <trkpt lat="44.82563" lon="-0.50416">
        <ele>13.8</ele>
        <time>2018-05-31T07:42:30Z</time>
      </trkpt>
      <trkpt lat="44.8256" lon="-0.50406">
        <ele>14</ele>
        <time>2018-05-31T07:42:37Z</time>
      </trkpt>
      <trkpt lat="44.82558" lon="-0.50395">
        <ele>14.3</ele>
        <time>2018-05-31T07:42:44Z</time>
      </trkpt>
      <trkpt lat="44.82556" lon="-0.50383">
        <ele>15.3</ele>
        <time>2018-05-31T07:42:52Z</time>
      </trkpt>
      <trkpt lat="44.82553" lon="-0.50371">
        <ele>16.1</ele>
        <time>2018-05-31T07:43:01Z</time>
      </trkpt>
      <trkpt lat="44.82552" lon="-0.50359">
        <ele>16.7</ele>
        <time>2018-05-31T07:43:10Z</time>
      </trkpt>
      <trkpt lat="44.82547" lon="-0.50349">
        <ele>17.4</ele>
        <time>2018-05-31T07:43:19Z</time>
      </trkpt>
      <trkpt lat="44.8254" lon="-0.50342">
        <ele>16.2</ele>
        <time>2018-05-31T07:43:27Z</time>
      </trkpt>
      <trkpt lat="44.82532" lon="-0.50338">
        <ele>15.4</ele>
        <time>2018-05-31T07:43:33Z</time>
      </trkpt>
      <trkpt lat="44.82523" lon="-0.50336">
        <ele>12.3</ele>
        <time>2018-05-31T07:43:42Z</time>
      </trkpt>
      <trkpt lat="44.82515" lon="-0.50335">
        <ele>8.9</ele>
        <time>2018-05-31T07:43:51Z</time>
      </trkpt>
      <trkpt lat="44.82507" lon="-0.50339">
        <ele>4.9</ele>
        <time>2018-05-31T07:44:00Z</time>
      </trkpt>
      <trkpt lat="44.82499" lon="-0.5034">
        <ele>4.6</ele>
        <time>2018-05-31T07:44:10Z</time>
      </trkpt>
      <trkpt lat="44.8249" lon="-0.50342">
        <ele>4.4</ele>
        <time>2018-05-31T07:44:19Z</time>
      </trkpt>
      <trkpt lat="44.82482" lon="-0.50343">
        <ele>1.3</ele>
        <time>2018-05-31T07:44:25Z</time>
      </trkpt>
      <trkpt lat="44.82473" lon="-0.50343">
        <ele>1.2</ele>
        <time>2018-05-31T07:44:34Z</time>
      </trkpt>
      <trkpt lat="44.82465" lon="-0.50341">
        <ele>1.9</ele>
        <time>2018-05-31T07:44:43Z</time>
      </trkpt>
      <trkpt lat="44.82457" lon="-0.50337">
        <ele>2.4</ele>
        <time>2018-05-31T07:44:51Z</time>
      </trkpt>
      <trkpt lat="44.82449" lon="-0.50332">
        <ele>6.7</ele>
        <time>2018-05-31T07:44:58Z</time>
      </trkpt>
      <trkpt lat="44.8244" lon="-0.5033">
        <ele>5.2</ele>
        <time>2018-05-31T07:45:08Z</time>
      </trkpt>
      <trkpt lat="44.82433" lon="-0.50324">
        <ele>5.2</ele>
        <time>2018-05-31T07:45:19Z</time>
      </trkpt>
      <trkpt lat="44.82425" lon="-0.5032">
        <ele>6.2</ele>
        <time>2018-05-31T07:45:37Z</time>
      </trkpt>
      <trkpt lat="44.82418" lon="-0.50313">
        <ele>7.1</ele>
        <time>2018-05-31T07:45:47Z</time>
      </trkpt>
      <trkpt lat="44.82415" lon="-0.50302">
        <ele>8.9</ele>
        <time>2018-05-31T07:45:58Z</time>
      </trkpt>
      <trkpt lat="44.82409" lon="-0.50292">
        <ele>10.6</ele>
        <time>2018-05-31T07:46:08Z</time>
      </trkpt>
      <trkpt lat="44.82409" lon="-0.50281">
        <ele>2.9</ele>
        <time>2018-05-31T07:46:35Z</time>
      </trkpt>
      <trkpt lat="44.82404" lon="-0.50273">
        <ele>2.2</ele>
        <time>2018-05-31T07:46:40Z</time>
      </trkpt>
      <trkpt lat="44.82397" lon="-0.50266">
        <ele>2.4</ele>
        <time>2018-05-31T07:46:46Z</time>
      </trkpt>
      <trkpt lat="44.8239" lon="-0.50258">
        <ele>3.4</ele>
        <time>2018-05-31T07:46:54Z</time>
      </trkpt>
      <trkpt lat="44.82386" lon="-0.50248">
        <ele>9</ele>
        <time>2018-05-31T07:47:01Z</time>
      </trkpt>
      <trkpt lat="44.82382" lon="-0.50238">
        <ele>14.4</ele>
        <time>2018-05-31T07:47:07Z</time>
      </trkpt>
      <trkpt lat="44.82378" lon="-0.50226">
        <ele>19.4</ele>
        <time>2018-05-31T07:47:14Z</time>
      </trkpt>
      <trkpt lat="44.82375" lon="-0.50215">
        <ele>20.4</ele>
        <time>2018-05-31T07:47:23Z</time>
      </trkpt>
      <trkpt lat="44.82373" lon="-0.50204">
        <ele>20.5</ele>
        <time>2018-05-31T07:47:30Z</time>
      </trkpt>
      <trkpt lat="44.82374" lon="-0.50192">
        <ele>20.3</ele>
        <time>2018-05-31T07:47:39Z</time>
      </trkpt>
      <trkpt lat="44.82373" lon="-0.5018">
        <ele>21.9</ele>
        <time>2018-05-31T07:47:47Z</time>
      </trkpt>
      <trkpt lat="44.82372" lon="-0.50168">
        <ele>22.8</ele>
        <time>2018-05-31T07:47:55Z</time>
      </trkpt>
      <trkpt lat="44.82372" lon="-0.50156">
        <ele>23.1</ele>
        <time>2018-05-31T07:48:03Z</time>
      </trkpt>
      <trkpt lat="44.8237" lon="-0.50145">
        <ele>24.1</ele>
        <time>2018-05-31T07:48:10Z</time>
      </trkpt>
      <trkpt lat="44.82369" lon="-0.50132">
        <ele>24.2</ele>
        <time>2018-05-31T07:48:19Z</time>
      </trkpt>
      <trkpt lat="44.82366" lon="-0.50122">
        <ele>25</ele>
        <time>2018-05-31T07:48:25Z</time>
      </trkpt>
      <trkpt lat="44.8236" lon="-0.50113">
        <ele>25.6</ele>
        <time>2018-05-31T07:48:31Z</time>
      </trkpt>
      <trkpt lat="44.82356" lon="-0.50102">
        <ele>24.7</ele>
        <time>2018-05-31T07:48:38Z</time>
      </trkpt>
      <trkpt lat="44.82354" lon="-0.50092">
        <ele>26.6</ele>
        <time>2018-05-31T07:48:45Z</time>
      </trkpt>
      <trkpt lat="44.82352" lon="-0.5008">
        <ele>28.2</ele>
        <time>2018-05-31T07:48:53Z</time>
      </trkpt>
      <trkpt lat="44.8235" lon="-0.50069">
        <ele>27.3</ele>
        <time>2018-05-31T07:49:01Z</time>
      </trkpt>
      <trkpt lat="44.82348" lon="-0.50058">
        <ele>22.2</ele>
        <time>2018-05-31T07:49:09Z</time>
      </trkpt>
      <trkpt lat="44.82344" lon="-0.50046">
        <ele>21.5</ele>
        <time>2018-05-31T07:49:20Z</time>
      </trkpt>
      <trkpt lat="44.82341" lon="-0.50035">
        <ele>23.9</ele>
        <time>2018-05-31T07:49:28Z</time>
      </trkpt>
      <trkpt lat="44.82337" lon="-0.50026">
        <ele>24.1</ele>
        <time>2018-05-31T07:49:34Z</time>
      </trkpt>
      <trkpt lat="44.82335" lon="-0.50014">
        <ele>23.9</ele>
        <time>2018-05-31T07:49:50Z</time>
      </trkpt>
      <trkpt lat="44.8234" lon="-0.50004">
        <ele>22.5</ele>
        <time>2018-05-31T07:50:03Z</time>
      </trkpt>
      <trkpt lat="44.82348" lon="-0.49999">
        <ele>20.1</ele>
        <time>2018-05-31T07:50:14Z</time>
      </trkpt>
      <trkpt lat="44.82356" lon="-0.49995">
        <ele>10.1</ele>
        <time>2018-05-31T07:50:24Z</time>
      </trkpt>
      <trkpt lat="44.82364" lon="-0.49994">
        <ele>5.8</ele>
        <time>2018-05-31T07:50:33Z</time>
      </trkpt>
      <trkpt lat="44.82372" lon="-0.4999">
        <ele>6</ele>
        <time>2018-05-31T07:50:41Z</time>
      </trkpt>
      <trkpt lat="44.82378" lon="-0.49981">
        <ele>7.1</ele>
        <time>2018-05-31T07:50:49Z</time>
      </trkpt>
      <trkpt lat="44.82379" lon="-0.49969">
        <ele>8.2</ele>
        <time>2018-05-31T07:51:00Z</time>
      </trkpt>
      <trkpt lat="44.82385" lon="-0.49959">
        <ele>10.4</ele>
        <time>2018-05-31T07:51:08Z</time>
      </trkpt>
      <trkpt lat="44.82391" lon="-0.49949">
        <ele>17.1</ele>
        <time>2018-05-31T07:51:21Z</time>
      </trkpt>
      <trkpt lat="44.82397" lon="-0.49942">
        <ele>19.3</ele>
        <time>2018-05-31T07:51:28Z</time>
      </trkpt>
      <trkpt lat="44.82401" lon="-0.49931">
        <ele>21.7</ele>
        <time>2018-05-31T07:51:35Z</time>
      </trkpt>
      <trkpt lat="44.82409" lon="-0.49926">
        <ele>24.5</ele>
        <time>2018-05-31T07:51:44Z</time>
      </trkpt>
      <trkpt lat="44.82417" lon="-0.49926">
        <ele>22.2</ele>
        <time>2018-05-31T07:51:48Z</time>
      </trkpt>
      <trkpt lat="44.82425" lon="-0.49929">
        <ele>15.2</ele>
        <time>2018-05-31T07:51:52Z</time>
      </trkpt>
      <trkpt lat="44.82433" lon="-0.49934">
        <ele>2.5</ele>
        <time>2018-05-31T07:51:58Z</time>
      </trkpt>
      <trkpt lat="44.82437" lon="-0.49924">
        <ele>-9.1</ele>
        <time>2018-05-31T07:52:09Z</time>
      </trkpt>
      <trkpt lat="44.82444" lon="-0.49917">
        <ele>-24.6</ele>
        <time>2018-05-31T07:52:21Z</time>
      </trkpt>
      <trkpt lat="44.82452" lon="-0.49919">
        <ele>-43.8</ele>
        <time>2018-05-31T07:52:29Z</time>
      </trkpt>
      <trkpt lat="44.82458" lon="-0.49912">
        <ele>-50.7</ele>
        <time>2018-05-31T07:52:36Z</time>
      </trkpt>
      <trkpt lat="44.82464" lon="-0.49904">
        <ele>-50.7</ele>
        <time>2018-05-31T07:52:43Z</time>
      </trkpt>
      <trkpt lat="44.82466" lon="-0.49893">
        <ele>-49.3</ele>
        <time>2018-05-31T07:52:49Z</time>
      </trkpt>
      <trkpt lat="44.82471" lon="-0.49883">
        <ele>-48.7</ele>
        <time>2018-05-31T07:52:57Z</time>
      </trkpt>
      <trkpt lat="44.82472" lon="-0.49873">
        <ele>-43.2</ele>
        <time>2018-05-31T07:53:02Z</time>
      </trkpt>
      <trkpt lat="44.82476" lon="-0.49862">
        <ele>-35.3</ele>
        <time>2018-05-31T07:53:07Z</time>
      </trkpt>
      <trkpt lat="44.82479" lon="-0.49851">
        <ele>-29.6</ele>
        <time>2018-05-31T07:53:12Z</time>
      </trkpt>
      <trkpt lat="44.82479" lon="-0.49839">
        <ele>-22.5</ele>
        <time>2018-05-31T07:53:17Z</time>
      </trkpt>
      <trkpt lat="44.82479" lon="-0.49828">
        <ele>-15.2</ele>
        <time>2018-05-31T07:53:21Z</time>
      </trkpt>
      <trkpt lat="44.82482" lon="-0.49817">
        <ele>-6.1</ele>
        <time>2018-05-31T07:53:26Z</time>
      </trkpt>
      <trkpt lat="44.82488" lon="-0.49809">
        <ele>0.5</ele>
        <time>2018-05-31T07:53:32Z</time>
      </trkpt>
      <trkpt lat="44.82494" lon="-0.498">
        <ele>11.7</ele>
        <time>2018-05-31T07:53:38Z</time>
      </trkpt>
      <trkpt lat="44.82499" lon="-0.49791">
        <ele>24.6</ele>
        <time>2018-05-31T07:53:47Z</time>
      </trkpt>
      <trkpt lat="44.82508" lon="-0.49789">
        <ele>27</ele>
        <time>2018-05-31T07:54:36Z</time>
      </trkpt>
      <trkpt lat="44.82516" lon="-0.49785">
        <ele>28.5</ele>
        <time>2018-05-31T07:54:46Z</time>
      </trkpt>
      <trkpt lat="44.82524" lon="-0.49786">
        <ele>19.8</ele>
        <time>2018-05-31T07:54:53Z</time>
      </trkpt>
      <trkpt lat="44.82532" lon="-0.49791">
        <ele>6</ele>
        <time>2018-05-31T07:54:59Z</time>
      </trkpt>
      <trkpt lat="44.8254" lon="-0.49792">
        <ele>-4.9</ele>
        <time>2018-05-31T07:55:06Z</time>
      </trkpt>
      <trkpt lat="44.82548" lon="-0.4979">
        <ele>-15.7</ele>
        <time>2018-05-31T07:55:15Z</time>
      </trkpt>
      <trkpt lat="44.82557" lon="-0.49786">
        <ele>-17.5</ele>
        <time>2018-05-31T07:55:23Z</time>
      </trkpt>
      <trkpt lat="44.82562" lon="-0.49777">
        <ele>-14.1</ele>
        <time>2018-05-31T07:55:29Z</time>
      </trkpt>
      <trkpt lat="44.82568" lon="-0.49769">
        <ele>-11.2</ele>
        <time>2018-05-31T07:55:37Z</time>
      </trkpt>
      <trkpt lat="44.82571" lon="-0.49758">
        <ele>-5.6</ele>
        <time>2018-05-31T07:55:43Z</time>
      </trkpt>
      <trkpt lat="44.82573" lon="-0.49746">
        <ele>2.4</ele>
        <time>2018-05-31T07:55:49Z</time>
      </trkpt>
      <trkpt lat="44.82579" lon="-0.49737">
        <ele>7.4</ele>
        <time>2018-05-31T07:55:55Z</time>
      </trkpt>
      <trkpt lat="44.82585" lon="-0.49728">
        <ele>11.9</ele>
        <time>2018-05-31T07:56:01Z</time>
      </trkpt>
      <trkpt lat="44.82593" lon="-0.49722">
        <ele>12.3</ele>
        <time>2018-05-31T07:56:09Z</time>
      </trkpt>
      <trkpt lat="44.826" lon="-0.49717">
        <ele>10.4</ele>
        <time>2018-05-31T07:56:16Z</time>
      </trkpt>
      <trkpt lat="44.82607" lon="-0.49711">
        <ele>10.6</ele>
        <time>2018-05-31T07:56:24Z</time>
      </trkpt>
      <trkpt lat="44.8261" lon="-0.497">
        <ele>14.2</ele>
        <time>2018-05-31T07:56:31Z</time>
      </trkpt>
      <trkpt lat="44.82615" lon="-0.49691">
        <ele>17</ele>
        <time>2018-05-31T07:56:42Z</time>
      </trkpt>
      <trkpt lat="44.82623" lon="-0.49685">
        <ele>20.4</ele>
        <time>2018-05-31T07:56:52Z</time>
      </trkpt>
      <trkpt lat="44.8263" lon="-0.4968">
        <ele>20</ele>
        <time>2018-05-31T07:56:58Z</time>
      </trkpt>
      <trkpt lat="44.82637" lon="-0.49675">
        <ele>18.3</ele>
        <time>2018-05-31T07:57:05Z</time>
      </trkpt>
      <trkpt lat="44.82645" lon="-0.49672">
        <ele>17.9</ele>
        <time>2018-05-31T07:57:11Z</time>
      </trkpt>
      <trkpt lat="44.82652" lon="-0.49666">
        <ele>19</ele>
        <time>2018-05-31T07:57:17Z</time>
      </trkpt>
      <trkpt lat="44.82659" lon="-0.49659">
        <ele>18.2</ele>
        <time>2018-05-31T07:57:24Z</time>
      </trkpt>
      <trkpt lat="44.82665" lon="-0.4965">
        <ele>19.4</ele>
        <time>2018-05-31T07:57:34Z</time>
      </trkpt>
      <trkpt lat="44.82671" lon="-0.49641">
        <ele>20.5</ele>
        <time>2018-05-31T07:57:42Z</time>
      </trkpt>
      <trkpt lat="44.82677" lon="-0.49634">
        <ele>21.6</ele>
        <time>2018-05-31T07:57:50Z</time>
      </trkpt>
      <trkpt lat="44.82683" lon="-0.49626">
        <ele>21.8</ele>
        <time>2018-05-31T07:57:56Z</time>
      </trkpt>
      <trkpt lat="44.8269" lon="-0.4962">
        <ele>22.3</ele>
        <time>2018-05-31T07:58:01Z</time>
      </trkpt>
      <trkpt lat="44.82696" lon="-0.49612">
        <ele>20.3</ele>
        <time>2018-05-31T07:58:06Z</time>
      </trkpt>
      <trkpt lat="44.82702" lon="-0.49603">
        <ele>19.5</ele>
        <time>2018-05-31T07:58:13Z</time>
      </trkpt>
      <trkpt lat="44.82707" lon="-0.49592">
        <ele>18.4</ele>
        <time>2018-05-31T07:58:21Z</time>
      </trkpt>
      <trkpt lat="44.82713" lon="-0.49583">
        <ele>20.3</ele>
        <time>2018-05-31T07:58:29Z</time>
      </trkpt>
      <trkpt lat="44.82718" lon="-0.49574">
        <ele>24.1</ele>
        <time>2018-05-31T07:58:36Z</time>
      </trkpt>
      <trkpt lat="44.82725" lon="-0.49568">
        <ele>22.9</ele>
        <time>2018-05-31T07:58:43Z</time>
      </trkpt>
      <trkpt lat="44.82729" lon="-0.49557">
        <ele>14.1</ele>
        <time>2018-05-31T07:58:54Z</time>
      </trkpt>
      <trkpt lat="44.82735" lon="-0.49547">
        <ele>13.6</ele>
        <time>2018-05-31T07:59:03Z</time>
      </trkpt>
      <trkpt lat="44.82741" lon="-0.49539">
        <ele>12.9</ele>
        <time>2018-05-31T07:59:12Z</time>
      </trkpt>
      <trkpt lat="44.82749" lon="-0.49532">
        <ele>17.9</ele>
        <time>2018-05-31T07:59:19Z</time>
      </trkpt>
      <trkpt lat="44.82757" lon="-0.49527">
        <ele>21.4</ele>
        <time>2018-05-31T07:59:25Z</time>
      </trkpt>
      <trkpt lat="44.82764" lon="-0.4952">
        <ele>24.1</ele>
        <time>2018-05-31T07:59:32Z</time>
      </trkpt>
      <trkpt lat="44.82769" lon="-0.49511">
        <ele>24.8</ele>
        <time>2018-05-31T07:59:39Z</time>
      </trkpt>
      <trkpt lat="44.82772" lon="-0.49501">
        <ele>25.3</ele>
        <time>2018-05-31T07:59:45Z</time>
      </trkpt>
      <trkpt lat="44.82777" lon="-0.49491">
        <ele>24.8</ele>
        <time>2018-05-31T07:59:53Z</time>
      </trkpt>
      <trkpt lat="44.82783" lon="-0.49482">
        <ele>20.2</ele>
        <time>2018-05-31T08:00:02Z</time>
      </trkpt>
      <trkpt lat="44.82789" lon="-0.49474">
        <ele>13.1</ele>
        <time>2018-05-31T08:00:10Z</time>
      </trkpt>
      <trkpt lat="44.82793" lon="-0.49463">
        <ele>14.3</ele>
        <time>2018-05-31T08:00:18Z</time>
      </trkpt>
      <trkpt lat="44.82798" lon="-0.49454">
        <ele>13.6</ele>
        <time>2018-05-31T08:00:28Z</time>
      </trkpt>
      <trkpt lat="44.82802" lon="-0.49445">
        <ele>16.4</ele>
        <time>2018-05-31T08:00:34Z</time>
      </trkpt>
      <trkpt lat="44.82807" lon="-0.49436">
        <ele>19.6</ele>
        <time>2018-05-31T08:00:40Z</time>
      </trkpt>
      <trkpt lat="44.82812" lon="-0.49428">
        <ele>20.7</ele>
        <time>2018-05-31T08:00:45Z</time>
      </trkpt>
      <trkpt lat="44.82819" lon="-0.49421">
        <ele>19.8</ele>
        <time>2018-05-31T08:00:51Z</time>
      </trkpt>
      <trkpt lat="44.82823" lon="-0.49412">
        <ele>21.1</ele>
        <time>2018-05-31T08:00:58Z</time>
      </trkpt>
      <trkpt lat="44.82827" lon="-0.49401">
        <ele>20.9</ele>
        <time>2018-05-31T08:01:07Z</time>
      </trkpt>
      <trkpt lat="44.82832" lon="-0.49391">
        <ele>22.7</ele>
        <time>2018-05-31T08:01:14Z</time>
      </trkpt>
      <trkpt lat="44.82836" lon="-0.4938">
        <ele>24.7</ele>
        <time>2018-05-31T08:01:21Z</time>
      </trkpt>
      <trkpt lat="44.8284" lon="-0.49371">
        <ele>20.3</ele>
        <time>2018-05-31T08:01:29Z</time>
      </trkpt>
      <trkpt lat="44.82844" lon="-0.49361">
        <ele>21.4</ele>
        <time>2018-05-31T08:01:36Z</time>
      </trkpt>
      <trkpt lat="44.8285" lon="-0.49352">
        <ele>16</ele>
        <time>2018-05-31T08:01:45Z</time>
      </trkpt>
      <trkpt lat="44.82858" lon="-0.49351">
        <ele>18.3</ele>
        <time>2018-05-31T08:01:57Z</time>
      </trkpt>
      <trkpt lat="44.82867" lon="-0.49357">
        <ele>17.7</ele>
        <time>2018-05-31T08:02:11Z</time>
      </trkpt>
      <trkpt lat="44.82875" lon="-0.49359">
        <ele>13.4</ele>
        <time>2018-05-31T08:02:18Z</time>
      </trkpt>
      <trkpt lat="44.82883" lon="-0.49362">
        <ele>12.8</ele>
        <time>2018-05-31T08:02:26Z</time>
      </trkpt>
      <trkpt lat="44.82891" lon="-0.49367">
        <ele>13.4</ele>
        <time>2018-05-31T08:02:33Z</time>
      </trkpt>
      <trkpt lat="44.82898" lon="-0.49372">
        <ele>7.9</ele>
        <time>2018-05-31T08:02:44Z</time>
      </trkpt>
      <trkpt lat="44.82905" lon="-0.49379">
        <ele>9.4</ele>
        <time>2018-05-31T08:02:50Z</time>
      </trkpt>
      <trkpt lat="44.82912" lon="-0.49383">
        <ele>9.2</ele>
        <time>2018-05-31T08:02:57Z</time>
      </trkpt>
      <trkpt lat="44.82921" lon="-0.49385">
        <ele>7.3</ele>
        <time>2018-05-31T08:03:03Z</time>
      </trkpt>
      <trkpt lat="44.82928" lon="-0.4939">
        <ele>7.7</ele>
        <time>2018-05-31T08:03:11Z</time>
      </trkpt>
      <trkpt lat="44.82936" lon="-0.49394">
        <ele>7.2</ele>
        <time>2018-05-31T08:03:16Z</time>
      </trkpt>
      <trkpt lat="44.82943" lon="-0.49387">
        <ele>7.4</ele>
        <time>2018-05-31T08:03:26Z</time>
      </trkpt>
      <trkpt lat="44.82948" lon="-0.49378">
        <ele>11.3</ele>
        <time>2018-05-31T08:03:35Z</time>
      </trkpt>
      <trkpt lat="44.82953" lon="-0.49368">
        <ele>17.3</ele>
        <time>2018-05-31T08:03:44Z</time>
      </trkpt>
      <trkpt lat="44.82953" lon="-0.49356">
        <ele>14.2</ele>
        <time>2018-05-31T08:03:51Z</time>
      </trkpt>
      <trkpt lat="44.82957" lon="-0.49346">
        <ele>8.4</ele>
        <time>2018-05-31T08:04:00Z</time>
      </trkpt>
      <trkpt lat="44.82959" lon="-0.49334">
        <ele>3</ele>
        <time>2018-05-31T08:04:09Z</time>
      </trkpt>
      <trkpt lat="44.82962" lon="-0.49323">
        <ele>0.8</ele>
        <time>2018-05-31T08:04:19Z</time>
      </trkpt>
      <trkpt lat="44.82966" lon="-0.49313">
        <ele>0.2</ele>
        <time>2018-05-31T08:04:28Z</time>
      </trkpt>
      <trkpt lat="44.8297" lon="-0.49302">
        <ele>1.7</ele>
        <time>2018-05-31T08:04:35Z</time>
      </trkpt>
      <trkpt lat="44.82973" lon="-0.49291">
        <ele>4.1</ele>
        <time>2018-05-31T08:04:41Z</time>
      </trkpt>
      <trkpt lat="44.82975" lon="-0.4928">
        <ele>5.3</ele>
        <time>2018-05-31T08:04:46Z</time>
      </trkpt>
      <trkpt lat="44.82978" lon="-0.49269">
        <ele>-3.5</ele>
        <time>2018-05-31T08:04:55Z</time>
      </trkpt>
      <trkpt lat="44.82983" lon="-0.49258">
        <ele>-10.4</ele>
        <time>2018-05-31T08:05:06Z</time>
      </trkpt>
      <trkpt lat="44.82985" lon="-0.49246">
        <ele>-12.8</ele>
        <time>2018-05-31T08:05:14Z</time>
      </trkpt>
      <trkpt lat="44.82985" lon="-0.49235">
        <ele>-10.6</ele>
        <time>2018-05-31T08:05:20Z</time>
      </trkpt>
      <trkpt lat="44.82985" lon="-0.49223">
        <ele>-10.9</ele>
        <time>2018-05-31T08:05:26Z</time>
      </trkpt>
      <trkpt lat="44.82989" lon="-0.49212">
        <ele>-12.7</ele>
        <time>2018-05-31T08:05:34Z</time>
      </trkpt>
      <trkpt lat="44.82996" lon="-0.49207">
        <ele>-16.3</ele>
        <time>2018-05-31T08:05:46Z</time>
      </trkpt>
      <trkpt lat="44.83" lon="-0.49202">
        <ele>-13</ele>
        <time>2018-05-31T08:05:56Z</time>
      </trkpt>
      <trkpt lat="44.83006" lon="-0.49194">
        <ele>-5.8</ele>
        <time>2018-05-31T08:06:00Z</time>
      </trkpt>
      <trkpt lat="44.8301" lon="-0.49183">
        <ele>-1.9</ele>
        <time>2018-05-31T08:06:10Z</time>
      </trkpt>
      <trkpt lat="44.83017" lon="-0.49176">
        <ele>-7.4</ele>
        <time>2018-05-31T08:06:23Z</time>
      </trkpt>
      <trkpt lat="44.83025" lon="-0.49176">
        <ele>-5.6</ele>
        <time>2018-05-31T08:06:35Z</time>
      </trkpt>
      <trkpt lat="44.83033" lon="-0.49173">
        <ele>-6.5</ele>
        <time>2018-05-31T08:06:45Z</time>
      </trkpt>
      <trkpt lat="44.83041" lon="-0.49171">
        <ele>2.5</ele>
        <time>2018-05-31T08:06:58Z</time>
      </trkpt>
      <trkpt lat="44.83049" lon="-0.49172">
        <ele>1.4</ele>
        <time>2018-05-31T08:07:14Z</time>
      </trkpt>
      <trkpt lat="44.83058" lon="-0.4917">
        <ele>-4.3</ele>
        <time>2018-05-31T08:07:25Z</time>
      </trkpt>
      <trkpt lat="44.83065" lon="-0.49165">
        <ele>-0.7</ele>
        <time>2018-05-31T08:07:33Z</time>
      </trkpt>
      <trkpt lat="44.83072" lon="-0.49158">
        <ele>1</ele>
        <time>2018-05-31T08:07:44Z</time>
      </trkpt>
      <trkpt lat="44.83079" lon="-0.49151">
        <ele>3.4</ele>
        <time>2018-05-31T08:07:57Z</time>
      </trkpt>
      <trkpt lat="44.83087" lon="-0.49152">
        <ele>1</ele>
        <time>2018-05-31T08:08:08Z</time>
      </trkpt>
      <trkpt lat="44.83096" lon="-0.49152">
        <ele>-6.7</ele>
        <time>2018-05-31T08:08:20Z</time>
      </trkpt>
      <trkpt lat="44.83104" lon="-0.49154">
        <ele>-7.8</ele>
        <time>2018-05-31T08:08:26Z</time>
      </trkpt>
      <trkpt lat="44.83112" lon="-0.49156">
        <ele>-8</ele>
        <time>2018-05-31T08:08:35Z</time>
      </trkpt>
      <trkpt lat="44.8312" lon="-0.49157">
        <ele>-8.7</ele>
        <time>2018-05-31T08:08:44Z</time>
      </trkpt>
      <trkpt lat="44.83129" lon="-0.49159">
        <ele>-11.5</ele>
        <time>2018-05-31T08:08:54Z</time>
      </trkpt>
      <trkpt lat="44.83137" lon="-0.49155">
        <ele>-3</ele>
        <time>2018-05-31T08:09:08Z</time>
      </trkpt>
      <trkpt lat="44.83139" lon="-0.49144">
        <ele>3.5</ele>
        <time>2018-05-31T08:09:19Z</time>
      </trkpt>
      <trkpt lat="44.83143" lon="-0.49133">
        <ele>2.5</ele>
        <time>2018-05-31T08:09:24Z</time>
      </trkpt>
      <trkpt lat="44.83151" lon="-0.49131">
        <ele>2.4</ele>
        <time>2018-05-31T08:09:34Z</time>
      </trkpt>
      <trkpt lat="44.8316" lon="-0.49132">
        <ele>7.9</ele>
        <time>2018-05-31T08:09:51Z</time>
      </trkpt>
      <trkpt lat="44.83168" lon="-0.49136">
        <ele>4.5</ele>
        <time>2018-05-31T08:10:02Z</time>
      </trkpt>
      <trkpt lat="44.83174" lon="-0.49143">
        <ele>5.4</ele>
        <time>2018-05-31T08:10:09Z</time>
      </trkpt>
      <trkpt lat="44.83182" lon="-0.49147">
        <ele>4.1</ele>
        <time>2018-05-31T08:10:17Z</time>
      </trkpt>
      <trkpt lat="44.8319" lon="-0.49149">
        <ele>-8.8</ele>
        <time>2018-05-31T08:10:29Z</time>
      </trkpt>
      <trkpt lat="44.83199" lon="-0.49147">
        <ele>-10.3</ele>
        <time>2018-05-31T08:10:37Z</time>
      </trkpt>
      <trkpt lat="44.83206" lon="-0.4914">
        <ele>-9.3</ele>
        <time>2018-05-31T08:10:50Z</time>
      </trkpt>
      <trkpt lat="44.83209" lon="-0.49129">
        <ele>-2.4</ele>
        <time>2018-05-31T08:10:57Z</time>
      </trkpt>
      <trkpt lat="44.83216" lon="-0.49125">
        <ele>-0.6</ele>
        <time>2018-05-31T08:11:11Z</time>
      </trkpt>
      <trkpt lat="44.83225" lon="-0.49123">
        <ele>-0.2</ele>
        <time>2018-05-31T08:11:20Z</time>
      </trkpt>
      <trkpt lat="44.8323" lon="-0.49113">
        <ele>3.5</ele>
        <time>2018-05-31T08:11:34Z</time>
      </trkpt>
      <trkpt lat="44.83239" lon="-0.49111">
        <ele>10.2</ele>
        <time>2018-05-31T08:11:45Z</time>
      </trkpt>
      <trkpt lat="44.83247" lon="-0.4911">
        <ele>14.6</ele>
        <time>2018-05-31T08:11:55Z</time>
      </trkpt>
      <trkpt lat="44.83254" lon="-0.4911">
        <ele>16.3</ele>
        <time>2018-05-31T08:12:04Z</time>
      </trkpt>
      <trkpt lat="44.83263" lon="-0.49106">
        <ele>17.7</ele>
        <time>2018-05-31T08:12:12Z</time>
      </trkpt>
      <trkpt lat="44.83271" lon="-0.49105">
        <ele>20.8</ele>
        <time>2018-05-31T08:12:25Z</time>
      </trkpt>
      <trkpt lat="44.83279" lon="-0.49107">
        <ele>17</ele>
        <time>2018-05-31T08:12:42Z</time>
      </trkpt>
      <trkpt lat="44.83288" lon="-0.49103">
        <ele>12.8</ele>
        <time>2018-05-31T08:13:01Z</time>
      </trkpt>
      <trkpt lat="44.83291" lon="-0.49112">
        <ele>8.2</ele>
        <time>2018-05-31T08:13:05Z</time>
      </trkpt>
      <trkpt lat="44.83299" lon="-0.49118">
        <ele>7.2</ele>
        <time>2018-05-31T08:13:12Z</time>
      </trkpt>
      <trkpt lat="44.83306" lon="-0.49111">
        <ele>4.2</ele>
        <time>2018-05-31T08:13:20Z</time>
      </trkpt>
      <trkpt lat="44.83314" lon="-0.49109">
        <ele>3.4</ele>
        <time>2018-05-31T08:13:29Z</time>
      </trkpt>
      <trkpt lat="44.83322" lon="-0.49103">
        <ele>5.6</ele>
        <time>2018-05-31T08:13:50Z</time>
      </trkpt>
      <trkpt lat="44.83329" lon="-0.49097">
        <ele>23.6</ele>
        <time>2018-05-31T08:15:47Z</time>
      </trkpt>
      <trkpt lat="44.83333" lon="-0.49111">
        <ele>10.4</ele>
        <time>2018-05-31T08:15:51Z</time>
      </trkpt>
      <trkpt lat="44.83334" lon="-0.49118">
        <ele>6</ele>
        <time>2018-05-31T08:16:17Z</time>
      </trkpt>
      <trkpt lat="44.8333" lon="-0.49103">
        <ele>15.7</ele>
        <time>2018-05-31T08:16:21Z</time>
      </trkpt>
      <trkpt lat="44.83338" lon="-0.49106">
        <ele>23.7</ele>
        <time>2018-05-31T08:17:47Z</time>
      </trkpt>
      <trkpt lat="44.83347" lon="-0.4911">
        <ele>18.6</ele>
        <time>2018-05-31T08:17:55Z</time>
      </trkpt>
      <trkpt lat="44.83355" lon="-0.4911">
        <ele>16.6</ele>
        <time>2018-05-31T08:18:06Z</time>
      </trkpt>
      <trkpt lat="44.83364" lon="-0.49109">
        <ele>19.4</ele>
        <time>2018-05-31T08:18:12Z</time>
      </trkpt>
      <trkpt lat="44.83372" lon="-0.49112">
        <ele>17.8</ele>
        <time>2018-05-31T08:18:19Z</time>
      </trkpt>
      <trkpt lat="44.8338" lon="-0.49114">
        <ele>16.4</ele>
        <time>2018-05-31T08:18:26Z</time>
      </trkpt>
      <trkpt lat="44.83388" lon="-0.49112">
        <ele>18.9</ele>
        <time>2018-05-31T08:18:34Z</time>
      </trkpt>
      <trkpt lat="44.83396" lon="-0.49111">
        <ele>26</ele>
        <time>2018-05-31T08:18:40Z</time>
      </trkpt>
      <trkpt lat="44.83405" lon="-0.49109">
        <ele>27.7</ele>
        <time>2018-05-31T08:18:47Z</time>
      </trkpt>
      <trkpt lat="44.83414" lon="-0.49109">
        <ele>27.2</ele>
        <time>2018-05-31T08:18:56Z</time>
      </trkpt>
      <trkpt lat="44.83423" lon="-0.49108">
        <ele>23.2</ele>
        <time>2018-05-31T08:19:05Z</time>
      </trkpt>
      <trkpt lat="44.83431" lon="-0.4911">
        <ele>16.9</ele>
        <time>2018-05-31T08:19:13Z</time>
      </trkpt>
      <trkpt lat="44.8344" lon="-0.49112">
        <ele>13.4</ele>
        <time>2018-05-31T08:19:21Z</time>
      </trkpt>
      <trkpt lat="44.83449" lon="-0.49114">
        <ele>13.2</ele>
        <time>2018-05-31T08:19:28Z</time>
      </trkpt>
      <trkpt lat="44.83457" lon="-0.49114">
        <ele>17.5</ele>
        <time>2018-05-31T08:19:39Z</time>
      </trkpt>
      <trkpt lat="44.83466" lon="-0.49115">
        <ele>21.9</ele>
        <time>2018-05-31T08:19:46Z</time>
      </trkpt>
      <trkpt lat="44.83474" lon="-0.4912">
        <ele>23.4</ele>
        <time>2018-05-31T08:19:52Z</time>
      </trkpt>
      <trkpt lat="44.8348" lon="-0.49124">
        <ele>22.9</ele>
        <time>2018-05-31T08:19:57Z</time>
      </trkpt>
      <trkpt lat="44.83489" lon="-0.49128">
        <ele>25.5</ele>
        <time>2018-05-31T08:20:02Z</time>
      </trkpt>
      <trkpt lat="44.83497" lon="-0.49131">
        <ele>17.1</ele>
        <time>2018-05-31T08:20:10Z</time>
      </trkpt>
      <trkpt lat="44.83504" lon="-0.49124">
        <ele>11.9</ele>
        <time>2018-05-31T08:20:20Z</time>
      </trkpt>
      <trkpt lat="44.83513" lon="-0.49126">
        <ele>13.5</ele>
        <time>2018-05-31T08:20:27Z</time>
      </trkpt>
      <trkpt lat="44.83521" lon="-0.49127">
        <ele>14.5</ele>
        <time>2018-05-31T08:20:33Z</time>
      </trkpt>
      <trkpt lat="44.8353" lon="-0.49124">
        <ele>15.4</ele>
        <time>2018-05-31T08:20:41Z</time>
      </trkpt>
      <trkpt lat="44.83538" lon="-0.49124">
        <ele>19.3</ele>
        <time>2018-05-31T08:20:52Z</time>
      </trkpt>
      <trkpt lat="44.83546" lon="-0.4912">
        <ele>21.9</ele>
        <time>2018-05-31T08:21:00Z</time>
      </trkpt>
      <trkpt lat="44.83554" lon="-0.49117">
        <ele>21</ele>
        <time>2018-05-31T08:21:07Z</time>
      </trkpt>
      <trkpt lat="44.83563" lon="-0.49116">
        <ele>21.5</ele>
        <time>2018-05-31T08:21:14Z</time>
      </trkpt>
      <trkpt lat="44.83571" lon="-0.49117">
        <ele>20.8</ele>
        <time>2018-05-31T08:21:22Z</time>
      </trkpt>
      <trkpt lat="44.83579" lon="-0.49111">
        <ele>25.8</ele>
        <time>2018-05-31T08:21:38Z</time>
      </trkpt>
      <trkpt lat="44.83585" lon="-0.49119">
        <ele>25.9</ele>
        <time>2018-05-31T08:21:46Z</time>
      </trkpt>
      <trkpt lat="44.83588" lon="-0.49131">
        <ele>27.5</ele>
        <time>2018-05-31T08:21:56Z</time>
      </trkpt>
      <trkpt lat="44.83591" lon="-0.49141">
        <ele>26.1</ele>
        <time>2018-05-31T08:22:03Z</time>
      </trkpt>
      <trkpt lat="44.83592" lon="-0.49152">
        <ele>25.9</ele>
        <time>2018-05-31T08:22:09Z</time>
      </trkpt>
      <trkpt lat="44.8359" lon="-0.49163">
        <ele>22.7</ele>
        <time>2018-05-31T08:22:16Z</time>
      </trkpt>
      <trkpt lat="44.8359" lon="-0.49175">
        <ele>19.6</ele>
        <time>2018-05-31T08:22:24Z</time>
      </trkpt>
      <trkpt lat="44.83592" lon="-0.49186">
        <ele>19.5</ele>
        <time>2018-05-31T08:22:31Z</time>
      </trkpt>
      <trkpt lat="44.83595" lon="-0.49198">
        <ele>19.9</ele>
        <time>2018-05-31T08:22:38Z</time>
      </trkpt>
      <trkpt lat="44.83595" lon="-0.4921">
        <ele>21.4</ele>
        <time>2018-05-31T08:22:45Z</time>
      </trkpt>
      <trkpt lat="44.83594" lon="-0.49221">
        <ele>21.4</ele>
        <time>2018-05-31T08:22:51Z</time>
      </trkpt>
      <trkpt lat="44.83596" lon="-0.49232">
        <ele>22.2</ele>
        <time>2018-05-31T08:22:57Z</time>
      </trkpt>
      <trkpt lat="44.83597" lon="-0.49244">
        <ele>24.1</ele>
        <time>2018-05-31T08:23:04Z</time>
      </trkpt>
      <trkpt lat="44.83598" lon="-0.49256">
        <ele>24.4</ele>
        <time>2018-05-31T08:23:10Z</time>
      </trkpt>
      <trkpt lat="44.83598" lon="-0.49268">
        <ele>22.2</ele>
        <time>2018-05-31T08:23:19Z</time>
      </trkpt>
      <trkpt lat="44.83599" lon="-0.49281">
        <ele>21.1</ele>
        <time>2018-05-31T08:23:26Z</time>
      </trkpt>
      <trkpt lat="44.83599" lon="-0.49292">
        <ele>20.9</ele>
        <time>2018-05-31T08:23:34Z</time>
      </trkpt>
      <trkpt lat="44.836" lon="-0.49305">
        <ele>20.6</ele>
        <time>2018-05-31T08:23:43Z</time>
      </trkpt>
      <trkpt lat="44.836" lon="-0.49317">
        <ele>23</ele>
        <time>2018-05-31T08:23:50Z</time>
      </trkpt>
      <trkpt lat="44.83601" lon="-0.49327">
        <ele>21.7</ele>
        <time>2018-05-31T08:23:58Z</time>
      </trkpt>
      <trkpt lat="44.83602" lon="-0.49339">
        <ele>21.5</ele>
        <time>2018-05-31T08:24:05Z</time>
      </trkpt>
      <trkpt lat="44.83603" lon="-0.4935">
        <ele>21.8</ele>
        <time>2018-05-31T08:24:12Z</time>
      </trkpt>
      <trkpt lat="44.83604" lon="-0.49361">
        <ele>23.2</ele>
        <time>2018-05-31T08:24:18Z</time>
      </trkpt>
      <trkpt lat="44.83602" lon="-0.49373">
        <ele>20.2</ele>
        <time>2018-05-31T08:24:25Z</time>
      </trkpt>
      <trkpt lat="44.83602" lon="-0.49385">
        <ele>19.9</ele>
        <time>2018-05-31T08:24:31Z</time>
      </trkpt>
      <trkpt lat="44.83602" lon="-0.49396">
        <ele>19.8</ele>
        <time>2018-05-31T08:24:38Z</time>
      </trkpt>
      <trkpt lat="44.83601" lon="-0.49408">
        <ele>17.2</ele>
        <time>2018-05-31T08:24:46Z</time>
      </trkpt>
      <trkpt lat="44.83599" lon="-0.49421">
        <ele>18.3</ele>
        <time>2018-05-31T08:24:53Z</time>
      </trkpt>
      <trkpt lat="44.83599" lon="-0.49432">
        <ele>17.4</ele>
        <time>2018-05-31T08:25:00Z</time>
      </trkpt>
      <trkpt lat="44.83602" lon="-0.49443">
        <ele>19.6</ele>
        <time>2018-05-31T08:25:07Z</time>
      </trkpt>
      <trkpt lat="44.83601" lon="-0.49456">
        <ele>15</ele>
        <time>2018-05-31T08:25:15Z</time>
      </trkpt>
      <trkpt lat="44.836" lon="-0.49467">
        <ele>17.1</ele>
        <time>2018-05-31T08:25:20Z</time>
      </trkpt>
      <trkpt lat="44.83599" lon="-0.49479">
        <ele>17.7</ele>
        <time>2018-05-31T08:25:26Z</time>
      </trkpt>
      <trkpt lat="44.83597" lon="-0.49489">
        <ele>16.5</ele>
        <time>2018-05-31T08:25:33Z</time>
      </trkpt>
      <trkpt lat="44.83596" lon="-0.49501">
        <ele>17.1</ele>
        <time>2018-05-31T08:25:40Z</time>
      </trkpt>
      <trkpt lat="44.83596" lon="-0.49513">
        <ele>16.7</ele>
        <time>2018-05-31T08:25:48Z</time>
      </trkpt>
      <trkpt lat="44.836" lon="-0.49524">
        <ele>15.9</ele>
        <time>2018-05-31T08:25:55Z</time>
      </trkpt>
      <trkpt lat="44.836" lon="-0.49536">
        <ele>8.7</ele>
        <time>2018-05-31T08:26:04Z</time>
      </trkpt>
      <trkpt lat="44.83603" lon="-0.49547">
        <ele>8.7</ele>
        <time>2018-05-31T08:26:11Z</time>
      </trkpt>
      <trkpt lat="44.83606" lon="-0.49559">
        <ele>8.2</ele>
        <time>2018-05-31T08:26:17Z</time>
      </trkpt>
      <trkpt lat="44.83609" lon="-0.4957">
        <ele>9</ele>
        <time>2018-05-31T08:26:23Z</time>
      </trkpt>
      <trkpt lat="44.83612" lon="-0.49577">
        <ele>10</ele>
        <time>2018-05-31T08:26:27Z</time>
      </trkpt>
      <trkpt lat="44.83618" lon="-0.49588">
        <ele>12.9</ele>
        <time>2018-05-31T08:26:32Z</time>
      </trkpt>
      <trkpt lat="44.83621" lon="-0.49598">
        <ele>15.3</ele>
        <time>2018-05-31T08:26:38Z</time>
      </trkpt>
      <trkpt lat="44.83625" lon="-0.49607">
        <ele>16.6</ele>
        <time>2018-05-31T08:26:46Z</time>
      </trkpt>
      <trkpt lat="44.83629" lon="-0.49617">
        <ele>20</ele>
        <time>2018-05-31T08:26:53Z</time>
      </trkpt>
      <trkpt lat="44.83627" lon="-0.49629">
        <ele>23.6</ele>
        <time>2018-05-31T08:27:00Z</time>
      </trkpt>
      <trkpt lat="44.83624" lon="-0.4964">
        <ele>24.8</ele>
        <time>2018-05-31T08:27:06Z</time>
      </trkpt>
      <trkpt lat="44.83624" lon="-0.49652">
        <ele>25.8</ele>
        <time>2018-05-31T08:27:12Z</time>
      </trkpt>
      <trkpt lat="44.83627" lon="-0.49661">
        <ele>28.8</ele>
        <time>2018-05-31T08:27:17Z</time>
      </trkpt>
      <trkpt lat="44.83632" lon="-0.49672">
        <ele>29.1</ele>
        <time>2018-05-31T08:27:23Z</time>
      </trkpt>
      <trkpt lat="44.83636" lon="-0.49682">
        <ele>30.2</ele>
        <time>2018-05-31T08:27:29Z</time>
      </trkpt>
      <trkpt lat="44.83639" lon="-0.49693">
        <ele>31</ele>
        <time>2018-05-31T08:27:36Z</time>
      </trkpt>
      <trkpt lat="44.8364" lon="-0.49705">
        <ele>29.6</ele>
        <time>2018-05-31T08:27:45Z</time>
      </trkpt>
      <trkpt lat="44.83639" lon="-0.49717">
        <ele>29</ele>
        <time>2018-05-31T08:28:08Z</time>
      </trkpt>
      <trkpt lat="44.8364" lon="-0.49729">
        <ele>25.1</ele>
        <time>2018-05-31T08:28:18Z</time>
      </trkpt>
      <trkpt lat="44.83645" lon="-0.49738">
        <ele>25.9</ele>
        <time>2018-05-31T08:28:27Z</time>
      </trkpt>
      <trkpt lat="44.83653" lon="-0.49738">
        <ele>17.9</ele>
        <time>2018-05-31T08:28:36Z</time>
      </trkpt>
      <trkpt lat="44.83662" lon="-0.49738">
        <ele>17.6</ele>
        <time>2018-05-31T08:28:42Z</time>
      </trkpt>
      <trkpt lat="44.8367" lon="-0.49738">
        <ele>17.9</ele>
        <time>2018-05-31T08:28:47Z</time>
      </trkpt>
      <trkpt lat="44.83678" lon="-0.49733">
        <ele>21.5</ele>
        <time>2018-05-31T08:28:55Z</time>
      </trkpt>
      <trkpt lat="44.83687" lon="-0.49735">
        <ele>20.3</ele>
        <time>2018-05-31T08:29:04Z</time>
      </trkpt>
      <trkpt lat="44.83695" lon="-0.49732">
        <ele>20.9</ele>
        <time>2018-05-31T08:29:13Z</time>
      </trkpt>
      <trkpt lat="44.83703" lon="-0.49736">
        <ele>20.6</ele>
        <time>2018-05-31T08:29:19Z</time>
      </trkpt>
      <trkpt lat="44.83709" lon="-0.49745">
        <ele>23.2</ele>
        <time>2018-05-31T08:29:26Z</time>
      </trkpt>
      <trkpt lat="44.83711" lon="-0.49756">
        <ele>25.2</ele>
        <time>2018-05-31T08:29:32Z</time>
      </trkpt>
      <trkpt lat="44.83713" lon="-0.49766">
        <ele>25.5</ele>
        <time>2018-05-31T08:29:37Z</time>
      </trkpt>
      <trkpt lat="44.83714" lon="-0.49778">
        <ele>24.2</ele>
        <time>2018-05-31T08:29:59Z</time>
      </trkpt>
      <trkpt lat="44.83715" lon="-0.49789">
        <ele>22.8</ele>
        <time>2018-05-31T08:30:08Z</time>
      </trkpt>
      <trkpt lat="44.83715" lon="-0.498">
        <ele>23.9</ele>
        <time>2018-05-31T08:30:15Z</time>
      </trkpt>
      <trkpt lat="44.83714" lon="-0.49813">
        <ele>23.1</ele>
        <time>2018-05-31T08:30:22Z</time>
      </trkpt>
      <trkpt lat="44.83712" lon="-0.49824">
        <ele>21.7</ele>
        <time>2018-05-31T08:30:29Z</time>
      </trkpt>
      <trkpt lat="44.83707" lon="-0.49834">
        <ele>17.9</ele>
        <time>2018-05-31T08:30:37Z</time>
      </trkpt>
      <trkpt lat="44.83704" lon="-0.49845">
        <ele>13.1</ele>
        <time>2018-05-31T08:30:47Z</time>
      </trkpt>
      <trkpt lat="44.83703" lon="-0.49858">
        <ele>11.5</ele>
        <time>2018-05-31T08:30:55Z</time>
      </trkpt>
      <trkpt lat="44.83703" lon="-0.49869">
        <ele>11.5</ele>
        <time>2018-05-31T08:31:02Z</time>
      </trkpt>
      <trkpt lat="44.83703" lon="-0.49881">
        <ele>11.3</ele>
        <time>2018-05-31T08:31:09Z</time>
      </trkpt>
      <trkpt lat="44.83702" lon="-0.49892">
        <ele>11.7</ele>
        <time>2018-05-31T08:31:15Z</time>
      </trkpt>
      <trkpt lat="44.83702" lon="-0.49904">
        <ele>12.9</ele>
        <time>2018-05-31T08:31:21Z</time>
      </trkpt>
      <trkpt lat="44.83699" lon="-0.49915">
        <ele>11.5</ele>
        <time>2018-05-31T08:31:29Z</time>
      </trkpt>
      <trkpt lat="44.83693" lon="-0.49923">
        <ele>13</ele>
        <time>2018-05-31T08:31:35Z</time>
      </trkpt>
      <trkpt lat="44.83691" lon="-0.49934">
        <ele>14.6</ele>
        <time>2018-05-31T08:31:41Z</time>
      </trkpt>
      <trkpt lat="44.83687" lon="-0.49945">
        <ele>16.2</ele>
        <time>2018-05-31T08:31:59Z</time>
      </trkpt>
      <trkpt lat="44.83684" lon="-0.49957">
        <ele>16.2</ele>
        <time>2018-05-31T08:32:08Z</time>
      </trkpt>
      <trkpt lat="44.8368" lon="-0.49967">
        <ele>18.2</ele>
        <time>2018-05-31T08:32:15Z</time>
      </trkpt>
      <trkpt lat="44.83675" lon="-0.49977">
        <ele>20.8</ele>
        <time>2018-05-31T08:32:22Z</time>
      </trkpt>
      <trkpt lat="44.83671" lon="-0.49988">
        <ele>21.2</ele>
        <time>2018-05-31T08:32:29Z</time>
      </trkpt>
      <trkpt lat="44.83668" lon="-0.49999">
        <ele>21.5</ele>
        <time>2018-05-31T08:32:38Z</time>
      </trkpt>
      <trkpt lat="44.83667" lon="-0.5001">
        <ele>23.8</ele>
        <time>2018-05-31T08:32:55Z</time>
      </trkpt>
      <trkpt lat="44.8366" lon="-0.50018">
        <ele>21.3</ele>
        <time>2018-05-31T08:33:02Z</time>
      </trkpt>
      <trkpt lat="44.83656" lon="-0.50028">
        <ele>20.1</ele>
        <time>2018-05-31T08:33:09Z</time>
      </trkpt>
      <trkpt lat="44.83653" lon="-0.50038">
        <ele>19.9</ele>
        <time>2018-05-31T08:33:16Z</time>
      </trkpt>
      <trkpt lat="44.83649" lon="-0.50049">
        <ele>19.8</ele>
        <time>2018-05-31T08:33:23Z</time>
      </trkpt>
      <trkpt lat="44.83646" lon="-0.5006">
        <ele>20.2</ele>
        <time>2018-05-31T08:33:31Z</time>
      </trkpt>
      <trkpt lat="44.83643" lon="-0.50071">
        <ele>20.9</ele>
        <time>2018-05-31T08:33:39Z</time>
      </trkpt>
      <trkpt lat="44.83641" lon="-0.50084">
        <ele>20.2</ele>
        <time>2018-05-31T08:34:14Z</time>
      </trkpt>
      <trkpt lat="44.83641" lon="-0.50096">
        <ele>22.6</ele>
        <time>2018-05-31T08:34:22Z</time>
      </trkpt>
      <trkpt lat="44.83647" lon="-0.50106">
        <ele>21.9</ele>
        <time>2018-05-31T08:34:30Z</time>
      </trkpt>
      <trkpt lat="44.83653" lon="-0.50113">
        <ele>20</ele>
        <time>2018-05-31T08:34:37Z</time>
      </trkpt>
      <trkpt lat="44.83659" lon="-0.50122">
        <ele>19.1</ele>
        <time>2018-05-31T08:34:44Z</time>
      </trkpt>
      <trkpt lat="44.8366" lon="-0.50135">
        <ele>19.2</ele>
        <time>2018-05-31T08:34:52Z</time>
      </trkpt>
      <trkpt lat="44.83656" lon="-0.50145">
        <ele>20.6</ele>
        <time>2018-05-31T08:34:59Z</time>
      </trkpt>
      <trkpt lat="44.83655" lon="-0.50157">
        <ele>21</ele>
        <time>2018-05-31T08:35:07Z</time>
      </trkpt>
      <trkpt lat="44.83655" lon="-0.50169">
        <ele>22.8</ele>
        <time>2018-05-31T08:35:15Z</time>
      </trkpt>
      <trkpt lat="44.83653" lon="-0.50181">
        <ele>20.1</ele>
        <time>2018-05-31T08:35:24Z</time>
      </trkpt>
      <trkpt lat="44.83651" lon="-0.50193">
        <ele>20.6</ele>
        <time>2018-05-31T08:35:32Z</time>
      </trkpt>
      <trkpt lat="44.8365" lon="-0.50205">
        <ele>19.8</ele>
        <time>2018-05-31T08:35:39Z</time>
      </trkpt>
      <trkpt lat="44.83648" lon="-0.50217">
        <ele>21.4</ele>
        <time>2018-05-31T08:35:46Z</time>
      </trkpt>
      <trkpt lat="44.83646" lon="-0.50227">
        <ele>21.6</ele>
        <time>2018-05-31T08:35:52Z</time>
      </trkpt>
      <trkpt lat="44.83645" lon="-0.50239">
        <ele>22</ele>
        <time>2018-05-31T08:35:59Z</time>
      </trkpt>
      <trkpt lat="44.83644" lon="-0.5025">
        <ele>20.7</ele>
        <time>2018-05-31T08:36:07Z</time>
      </trkpt>
      <trkpt lat="44.83643" lon="-0.50262">
        <ele>20.6</ele>
        <time>2018-05-31T08:36:15Z</time>
      </trkpt>
      <trkpt lat="44.83641" lon="-0.50273">
        <ele>21</ele>
        <time>2018-05-31T08:36:23Z</time>
      </trkpt>
      <trkpt lat="44.8364" lon="-0.50285">
        <ele>20.8</ele>
        <time>2018-05-31T08:36:30Z</time>
      </trkpt>
      <trkpt lat="44.8364" lon="-0.50297">
        <ele>20.2</ele>
        <time>2018-05-31T08:36:37Z</time>
      </trkpt>
      <trkpt lat="44.83639" lon="-0.50309">
        <ele>19.5</ele>
        <time>2018-05-31T08:36:44Z</time>
      </trkpt>
      <trkpt lat="44.83639" lon="-0.50321">
        <ele>17.3</ele>
        <time>2018-05-31T08:36:52Z</time>
      </trkpt>
      <trkpt lat="44.83639" lon="-0.50332">
        <ele>16.5</ele>
        <time>2018-05-31T08:36:59Z</time>
      </trkpt>
      <trkpt lat="44.83638" lon="-0.50345">
        <ele>16.9</ele>
        <time>2018-05-31T08:37:06Z</time>
      </trkpt>
      <trkpt lat="44.83637" lon="-0.50357">
        <ele>17.6</ele>
        <time>2018-05-31T08:37:13Z</time>
      </trkpt>
      <trkpt lat="44.83637" lon="-0.50368">
        <ele>17.4</ele>
        <time>2018-05-31T08:37:20Z</time>
      </trkpt>
      <trkpt lat="44.83636" lon="-0.5038">
        <ele>17.5</ele>
        <time>2018-05-31T08:37:27Z</time>
      </trkpt>
      <trkpt lat="44.83635" lon="-0.50392">
        <ele>17.2</ele>
        <time>2018-05-31T08:37:34Z</time>
      </trkpt>
      <trkpt lat="44.83633" lon="-0.50404">
        <ele>17.2</ele>
        <time>2018-05-31T08:37:41Z</time>
      </trkpt>
      <trkpt lat="44.83633" lon="-0.50416">
        <ele>17.3</ele>
        <time>2018-05-31T08:37:49Z</time>
      </trkpt>
      <trkpt lat="44.83633" lon="-0.50428">
        <ele>18.2</ele>
        <time>2018-05-31T08:37:56Z</time>
      </trkpt>
      <trkpt lat="44.83632" lon="-0.50439">
        <ele>17.9</ele>
        <time>2018-05-31T08:38:03Z</time>
      </trkpt>
      <trkpt lat="44.8363" lon="-0.5045">
        <ele>17.8</ele>
        <time>2018-05-31T08:38:10Z</time>
      </trkpt>
      <trkpt lat="44.83629" lon="-0.50461">
        <ele>17.9</ele>
        <time>2018-05-31T08:38:17Z</time>
      </trkpt>
      <trkpt lat="44.83629" lon="-0.50473">
        <ele>19</ele>
        <time>2018-05-31T08:38:24Z</time>
      </trkpt>
      <trkpt lat="44.8363" lon="-0.50485">
        <ele>18.5</ele>
        <time>2018-05-31T08:38:32Z</time>
      </trkpt>
      <trkpt lat="44.83629" lon="-0.50498">
        <ele>17.2</ele>
        <time>2018-05-31T08:38:40Z</time>
      </trkpt>
      <trkpt lat="44.83628" lon="-0.5051">
        <ele>16.4</ele>
        <time>2018-05-31T08:38:49Z</time>
      </trkpt>
      <trkpt lat="44.8363" lon="-0.50521">
        <ele>15.8</ele>
        <time>2018-05-31T08:38:56Z</time>
      </trkpt>
      <trkpt lat="44.83631" lon="-0.50533">
        <ele>14.8</ele>
        <time>2018-05-31T08:39:03Z</time>
      </trkpt>
      <trkpt lat="44.83633" lon="-0.50544">
        <ele>14.9</ele>
        <time>2018-05-31T08:39:10Z</time>
      </trkpt>
      <trkpt lat="44.83635" lon="-0.50556">
        <ele>16.5</ele>
        <time>2018-05-31T08:39:17Z</time>
      </trkpt>
      <trkpt lat="44.83636" lon="-0.50568">
        <ele>15.9</ele>
        <time>2018-05-31T08:39:25Z</time>
      </trkpt>
      <trkpt lat="44.83637" lon="-0.5058">
        <ele>16</ele>
        <time>2018-05-31T08:39:32Z</time>
      </trkpt>
      <trkpt lat="44.83637" lon="-0.50593">
        <ele>14.8</ele>
        <time>2018-05-31T08:39:40Z</time>
      </trkpt>
      <trkpt lat="44.83638" lon="-0.50604">
        <ele>10.2</ele>
        <time>2018-05-31T08:40:31Z</time>
      </trkpt>
      <trkpt lat="44.83639" lon="-0.50616">
        <ele>7.8</ele>
        <time>2018-05-31T08:40:40Z</time>
      </trkpt>
      <trkpt lat="44.83642" lon="-0.50626">
        <ele>9.4</ele>
        <time>2018-05-31T08:40:58Z</time>
      </trkpt>
      <trkpt lat="44.83646" lon="-0.50637">
        <ele>18.5</ele>
        <time>2018-05-31T08:41:06Z</time>
      </trkpt>
      <trkpt lat="44.83648" lon="-0.50648">
        <ele>19.2</ele>
        <time>2018-05-31T08:41:28Z</time>
      </trkpt>
      <trkpt lat="44.83648" lon="-0.5066">
        <ele>5.4</ele>
        <time>2018-05-31T08:41:43Z</time>
      </trkpt>
      <trkpt lat="44.8365" lon="-0.50672">
        <ele>5.4</ele>
        <time>2018-05-31T08:41:53Z</time>
      </trkpt>
      <trkpt lat="44.83652" lon="-0.50683">
        <ele>5.8</ele>
        <time>2018-05-31T08:42:00Z</time>
      </trkpt>
      <trkpt lat="44.83652" lon="-0.50696">
        <ele>4.7</ele>
        <time>2018-05-31T08:42:07Z</time>
      </trkpt>
      <trkpt lat="44.83653" lon="-0.50708">
        <ele>5.6</ele>
        <time>2018-05-31T08:42:14Z</time>
      </trkpt>
      <trkpt lat="44.83651" lon="-0.5072">
        <ele>6.3</ele>
        <time>2018-05-31T08:42:27Z</time>
      </trkpt>
      <trkpt lat="44.83645" lon="-0.50724">
        <ele>2.2</ele>
        <time>2018-05-31T08:42:32Z</time>
      </trkpt>
      <trkpt lat="44.83638" lon="-0.50731">
        <ele>-4.4</ele>
        <time>2018-05-31T08:42:41Z</time>
      </trkpt>
      <trkpt lat="44.83645" lon="-0.50726">
        <ele>2.7</ele>
        <time>2018-05-31T08:43:23Z</time>
      </trkpt>
      <trkpt lat="44.83651" lon="-0.50736">
        <ele>12.2</ele>
        <time>2018-05-31T08:43:40Z</time>
      </trkpt>
      <trkpt lat="44.83656" lon="-0.50745">
        <ele>11.1</ele>
        <time>2018-05-31T08:43:48Z</time>
      </trkpt>
      <trkpt lat="44.83661" lon="-0.50755">
        <ele>10.4</ele>
        <time>2018-05-31T08:43:55Z</time>
      </trkpt>
      <trkpt lat="44.83665" lon="-0.50765">
        <ele>12.8</ele>
        <time>2018-05-31T08:44:01Z</time>
      </trkpt>
      <trkpt lat="44.83672" lon="-0.50772">
        <ele>11.9</ele>
        <time>2018-05-31T08:44:07Z</time>
      </trkpt>
      <trkpt lat="44.83678" lon="-0.5078">
        <ele>10.1</ele>
        <time>2018-05-31T08:44:14Z</time>
      </trkpt>
      <trkpt lat="44.83681" lon="-0.50792">
        <ele>11.9</ele>
        <time>2018-05-31T08:44:22Z</time>
      </trkpt>
      <trkpt lat="44.83681" lon="-0.50804">
        <ele>13.7</ele>
        <time>2018-05-31T08:44:29Z</time>
      </trkpt>
      <trkpt lat="44.83681" lon="-0.50816">
        <ele>10.8</ele>
        <time>2018-05-31T08:44:38Z</time>
      </trkpt>
      <trkpt lat="44.83683" lon="-0.50827">
        <ele>5.8</ele>
        <time>2018-05-31T08:44:45Z</time>
      </trkpt>
      <trkpt lat="44.83683" lon="-0.5084">
        <ele>1.2</ele>
        <time>2018-05-31T08:44:52Z</time>
      </trkpt>
      <trkpt lat="44.83687" lon="-0.50851">
        <ele>1.3</ele>
        <time>2018-05-31T08:44:57Z</time>
      </trkpt>
      <trkpt lat="44.83687" lon="-0.50861">
        <ele>-1.2</ele>
        <time>2018-05-31T08:45:02Z</time>
      </trkpt>
      <trkpt lat="44.83688" lon="-0.50872">
        <ele>-4.7</ele>
        <time>2018-05-31T08:45:06Z</time>
      </trkpt>
      <trkpt lat="44.83688" lon="-0.50883">
        <ele>-5.1</ele>
        <time>2018-05-31T08:45:12Z</time>
      </trkpt>
      <trkpt lat="44.83689" lon="-0.50895">
        <ele>-1.3</ele>
        <time>2018-05-31T08:45:19Z</time>
      </trkpt>
      <trkpt lat="44.83689" lon="-0.50907">
        <ele>4.7</ele>
        <time>2018-05-31T08:45:25Z</time>
      </trkpt>
      <trkpt lat="44.83686" lon="-0.50918">
        <ele>8.8</ele>
        <time>2018-05-31T08:45:32Z</time>
      </trkpt>
      <trkpt lat="44.8368" lon="-0.50926">
        <ele>8.7</ele>
        <time>2018-05-31T08:45:38Z</time>
      </trkpt>
      <trkpt lat="44.83673" lon="-0.50932">
        <ele>8.6</ele>
        <time>2018-05-31T08:45:45Z</time>
      </trkpt>
      <trkpt lat="44.83665" lon="-0.50937">
        <ele>4.9</ele>
        <time>2018-05-31T08:45:52Z</time>
      </trkpt>
      <trkpt lat="44.83672" lon="-0.5094">
        <ele>1.9</ele>
        <time>2018-05-31T08:46:12Z</time>
      </trkpt>
      <trkpt lat="44.83681" lon="-0.50941">
        <ele>6</ele>
        <time>2018-05-31T08:46:20Z</time>
      </trkpt>
      <trkpt lat="44.83689" lon="-0.50946">
        <ele>13.5</ele>
        <time>2018-05-31T08:46:29Z</time>
      </trkpt>
      <trkpt lat="44.83697" lon="-0.5095">
        <ele>15.1</ele>
        <time>2018-05-31T08:46:45Z</time>
      </trkpt>
      <trkpt lat="44.83705" lon="-0.50944">
        <ele>9.3</ele>
        <time>2018-05-31T08:46:55Z</time>
      </trkpt>
      <trkpt lat="44.83713" lon="-0.50945">
        <ele>13.2</ele>
        <time>2018-05-31T08:47:06Z</time>
      </trkpt>
      <trkpt lat="44.83721" lon="-0.50947">
        <ele>11.8</ele>
        <time>2018-05-31T08:47:16Z</time>
      </trkpt>
      <trkpt lat="44.83728" lon="-0.50953">
        <ele>9.8</ele>
        <time>2018-05-31T08:47:23Z</time>
      </trkpt>
      <trkpt lat="44.83737" lon="-0.50957">
        <ele>10.4</ele>
        <time>2018-05-31T08:47:29Z</time>
      </trkpt>
      <trkpt lat="44.83744" lon="-0.5096">
        <ele>13.1</ele>
        <time>2018-05-31T08:47:35Z</time>
      </trkpt>
      <trkpt lat="44.83751" lon="-0.50966">
        <ele>13.2</ele>
        <time>2018-05-31T08:47:40Z</time>
      </trkpt>
      <trkpt lat="44.83759" lon="-0.50972">
        <ele>18.4</ele>
        <time>2018-05-31T08:47:48Z</time>
      </trkpt>
      <trkpt lat="44.83766" lon="-0.50977">
        <ele>23.2</ele>
        <time>2018-05-31T08:47:54Z</time>
      </trkpt>
      <trkpt lat="44.83772" lon="-0.50985">
        <ele>22.9</ele>
        <time>2018-05-31T08:48:02Z</time>
      </trkpt>
      <trkpt lat="44.83781" lon="-0.50988">
        <ele>20.1</ele>
        <time>2018-05-31T08:48:11Z</time>
      </trkpt>
      <trkpt lat="44.83788" lon="-0.50988">
        <ele>20.2</ele>
        <time>2018-05-31T08:48:18Z</time>
      </trkpt>
      <trkpt lat="44.83794" lon="-0.50997">
        <ele>16.7</ele>
        <time>2018-05-31T08:48:36Z</time>
      </trkpt>
      <trkpt lat="44.83792" lon="-0.51009">
        <ele>17.4</ele>
        <time>2018-05-31T08:48:49Z</time>
      </trkpt>
      <trkpt lat="44.83789" lon="-0.51019">
        <ele>16.7</ele>
        <time>2018-05-31T08:48:56Z</time>
      </trkpt>
      <trkpt lat="44.83786" lon="-0.5103">
        <ele>16.5</ele>
        <time>2018-05-31T08:49:03Z</time>
      </trkpt>
      <trkpt lat="44.83782" lon="-0.5104">
        <ele>16.3</ele>
        <time>2018-05-31T08:49:10Z</time>
      </trkpt>
      <trkpt lat="44.83778" lon="-0.51051">
        <ele>16</ele>
        <time>2018-05-31T08:49:18Z</time>
      </trkpt>
      <trkpt lat="44.83775" lon="-0.51062">
        <ele>14.2</ele>
        <time>2018-05-31T08:49:24Z</time>
      </trkpt>
      <trkpt lat="44.83773" lon="-0.51073">
        <ele>13.7</ele>
        <time>2018-05-31T08:49:31Z</time>
      </trkpt>
      <trkpt lat="44.83766" lon="-0.51081">
        <ele>15.5</ele>
        <time>2018-05-31T08:49:39Z</time>
      </trkpt>
      <trkpt lat="44.83759" lon="-0.51087">
        <ele>16.3</ele>
        <time>2018-05-31T08:49:46Z</time>
      </trkpt>
      <trkpt lat="44.83752" lon="-0.51092">
        <ele>16</ele>
        <time>2018-05-31T08:49:52Z</time>
      </trkpt>
      <trkpt lat="44.83743" lon="-0.51093">
        <ele>13.7</ele>
        <time>2018-05-31T08:50:00Z</time>
      </trkpt>
      <trkpt lat="44.83735" lon="-0.51098">
        <ele>12.9</ele>
        <time>2018-05-31T08:50:06Z</time>
      </trkpt>
      <trkpt lat="44.83727" lon="-0.51101">
        <ele>13.2</ele>
        <time>2018-05-31T08:50:12Z</time>
      </trkpt>
      <trkpt lat="44.83719" lon="-0.51103">
        <ele>13.4</ele>
        <time>2018-05-31T08:50:18Z</time>
      </trkpt>
      <trkpt lat="44.83713" lon="-0.51112">
        <ele>8.2</ele>
        <time>2018-05-31T08:50:29Z</time>
      </trkpt>
      <trkpt lat="44.83705" lon="-0.51117">
        <ele>6</ele>
        <time>2018-05-31T08:50:35Z</time>
      </trkpt>
      <trkpt lat="44.83697" lon="-0.51121">
        <ele>6.7</ele>
        <time>2018-05-31T08:50:42Z</time>
      </trkpt>
      <trkpt lat="44.83689" lon="-0.51125">
        <ele>7.8</ele>
        <time>2018-05-31T08:50:49Z</time>
      </trkpt>
      <trkpt lat="44.83682" lon="-0.51128">
        <ele>7.1</ele>
        <time>2018-05-31T08:50:55Z</time>
      </trkpt>
      <trkpt lat="44.83674" lon="-0.51133">
        <ele>6.1</ele>
        <time>2018-05-31T08:51:00Z</time>
      </trkpt>
      <trkpt lat="44.83667" lon="-0.51139">
        <ele>5.9</ele>
        <time>2018-05-31T08:51:05Z</time>
      </trkpt>
      <trkpt lat="44.83662" lon="-0.51147">
        <ele>12.2</ele>
        <time>2018-05-31T08:51:11Z</time>
      </trkpt>
      <trkpt lat="44.83655" lon="-0.51154">
        <ele>13.4</ele>
        <time>2018-05-31T08:51:18Z</time>
      </trkpt>
      <trkpt lat="44.83653" lon="-0.51145">
        <ele>12.9</ele>
        <time>2018-05-31T08:51:30Z</time>
      </trkpt>
      <trkpt lat="44.83649" lon="-0.51135">
        <ele>6.9</ele>
        <time>2018-05-31T08:51:37Z</time>
      </trkpt>
      <trkpt lat="44.83653" lon="-0.51123">
        <ele>6.5</ele>
        <time>2018-05-31T08:51:48Z</time>
      </trkpt>
      <trkpt lat="44.83656" lon="-0.51113">
        <ele>6.1</ele>
        <time>2018-05-31T08:51:58Z</time>
      </trkpt>
      <trkpt lat="44.83657" lon="-0.51105">
        <ele>7.8</ele>
        <time>2018-05-31T08:52:19Z</time>
      </trkpt>
      <trkpt lat="44.83664" lon="-0.51097">
        <ele>17.6</ele>
        <time>2018-05-31T08:52:33Z</time>
      </trkpt>
      <trkpt lat="44.83667" lon="-0.51086">
        <ele>11.2</ele>
        <time>2018-05-31T08:52:45Z</time>
      </trkpt>
      <trkpt lat="44.83669" lon="-0.51074">
        <ele>58.8</ele>
        <time>2018-05-31T08:52:58Z</time>
      </trkpt>
      <trkpt lat="44.83669" lon="-0.51062">
        <ele>-0.7</ele>
        <time>2018-05-31T08:53:03Z</time>
      </trkpt>
      <trkpt lat="44.83671" lon="-0.5105">
        <ele>-2.9</ele>
        <time>2018-05-31T08:53:09Z</time>
      </trkpt>
      <trkpt lat="44.83671" lon="-0.51038">
        <ele>-2.3</ele>
        <time>2018-05-31T08:53:14Z</time>
      </trkpt>
      <trkpt lat="44.83673" lon="-0.51028">
        <ele>-3.4</ele>
        <time>2018-05-31T08:53:26Z</time>
      </trkpt>
      <trkpt lat="44.83675" lon="-0.51016">
        <ele>-5.4</ele>
        <time>2018-05-31T08:53:31Z</time>
      </trkpt>
      <trkpt lat="44.83681" lon="-0.51008">
        <ele>-0.3</ele>
        <time>2018-05-31T08:53:39Z</time>
      </trkpt>
      <trkpt lat="44.83686" lon="-0.50997">
        <ele>3.1</ele>
        <time>2018-05-31T08:53:46Z</time>
      </trkpt>
      <trkpt lat="44.83688" lon="-0.50985">
        <ele>1.6</ele>
        <time>2018-05-31T08:53:53Z</time>
      </trkpt>
      <trkpt lat="44.8369" lon="-0.50974">
        <ele>2.3</ele>
        <time>2018-05-31T08:54:02Z</time>
      </trkpt>
      <trkpt lat="44.8369" lon="-0.50962">
        <ele>6.7</ele>
        <time>2018-05-31T08:54:11Z</time>
      </trkpt>
      <trkpt lat="44.83687" lon="-0.50952">
        <ele>5.5</ele>
        <time>2018-05-31T08:54:16Z</time>
      </trkpt>
      <trkpt lat="44.8368" lon="-0.50942">
        <ele>7.4</ele>
        <time>2018-05-31T08:54:20Z</time>
      </trkpt>
      <trkpt lat="44.83671" lon="-0.50941">
        <ele>9.6</ele>
        <time>2018-05-31T08:54:26Z</time>
      </trkpt>
      <trkpt lat="44.83664" lon="-0.50945">
        <ele>13.3</ele>
        <time>2018-05-31T08:54:36Z</time>
      </trkpt>
      <trkpt lat="44.83656" lon="-0.50947">
        <ele>14.6</ele>
        <time>2018-05-31T08:54:42Z</time>
      </trkpt>
      <trkpt lat="44.83648" lon="-0.50943">
        <ele>7.4</ele>
        <time>2018-05-31T08:54:51Z</time>
      </trkpt>
      <trkpt lat="44.8364" lon="-0.50945">
        <ele>4.7</ele>
        <time>2018-05-31T08:55:01Z</time>
      </trkpt>
      <trkpt lat="44.83632" lon="-0.50942">
        <ele>8.1</ele>
        <time>2018-05-31T08:55:11Z</time>
      </trkpt>
      <trkpt lat="44.83623" lon="-0.50938">
        <ele>9.3</ele>
        <time>2018-05-31T08:55:18Z</time>
      </trkpt>
      <trkpt lat="44.83615" lon="-0.50938">
        <ele>12.2</ele>
        <time>2018-05-31T08:55:26Z</time>
      </trkpt>
      <trkpt lat="44.83607" lon="-0.50935">
        <ele>15</ele>
        <time>2018-05-31T08:55:33Z</time>
      </trkpt>
      <trkpt lat="44.836" lon="-0.5093">
        <ele>16.5</ele>
        <time>2018-05-31T08:55:40Z</time>
      </trkpt>
      <trkpt lat="44.83591" lon="-0.50929">
        <ele>14.8</ele>
        <time>2018-05-31T08:55:47Z</time>
      </trkpt>
      <trkpt lat="44.83582" lon="-0.5093">
        <ele>14.7</ele>
        <time>2018-05-31T08:55:53Z</time>
      </trkpt>
      <trkpt lat="44.83574" lon="-0.5093">
        <ele>18.2</ele>
        <time>2018-05-31T08:56:00Z</time>
      </trkpt>
      <trkpt lat="44.83566" lon="-0.50928">
        <ele>15.3</ele>
        <time>2018-05-31T08:56:09Z</time>
      </trkpt>
      <trkpt lat="44.83558" lon="-0.50924">
        <ele>9.3</ele>
        <time>2018-05-31T08:56:18Z</time>
      </trkpt>
      <trkpt lat="44.8355" lon="-0.50928">
        <ele>8.4</ele>
        <time>2018-05-31T08:56:48Z</time>
      </trkpt>
      <trkpt lat="44.83542" lon="-0.50931">
        <ele>8.9</ele>
        <time>2018-05-31T08:56:55Z</time>
      </trkpt>
      <trkpt lat="44.83535" lon="-0.50936">
        <ele>9.8</ele>
        <time>2018-05-31T08:57:02Z</time>
      </trkpt>
      <trkpt lat="44.83527" lon="-0.5094">
        <ele>3.4</ele>
        <time>2018-05-31T08:57:10Z</time>
      </trkpt>
      <trkpt lat="44.83518" lon="-0.50937">
        <ele>-3</ele>
        <time>2018-05-31T08:57:17Z</time>
      </trkpt>
      <trkpt lat="44.83513" lon="-0.50946">
        <ele>-9.6</ele>
        <time>2018-05-31T08:57:27Z</time>
      </trkpt>
      <trkpt lat="44.83509" lon="-0.50956">
        <ele>-7.7</ele>
        <time>2018-05-31T08:57:34Z</time>
      </trkpt>
      <trkpt lat="44.83508" lon="-0.50972">
        <ele>-4.6</ele>
        <time>2018-05-31T08:57:39Z</time>
      </trkpt>
      <trkpt lat="44.83506" lon="-0.50984">
        <ele>-2</ele>
        <time>2018-05-31T08:57:44Z</time>
      </trkpt>
      <trkpt lat="44.83497" lon="-0.50987">
        <ele>-6.8</ele>
        <time>2018-05-31T08:57:56Z</time>
      </trkpt>
      <trkpt lat="44.83492" lon="-0.50978">
        <ele>-27.5</ele>
        <time>2018-05-31T08:58:08Z</time>
      </trkpt>
      <trkpt lat="44.8349" lon="-0.50969">
        <ele>-51.9</ele>
        <time>2018-05-31T08:58:24Z</time>
      </trkpt>
      <trkpt lat="44.83497" lon="-0.50961">
        <ele>-112.8</ele>
        <time>2018-05-31T08:58:47Z</time>
      </trkpt>
      <trkpt lat="44.83492" lon="-0.50952">
        <ele>-125.6</ele>
        <time>2018-05-31T08:59:08Z</time>
      </trkpt>
      <trkpt lat="44.83484" lon="-0.5095">
        <ele>-117.1</ele>
        <time>2018-05-31T08:59:13Z</time>
      </trkpt>
      <trkpt lat="44.83478" lon="-0.50945">
        <ele>-104.2</ele>
        <time>2018-05-31T08:59:18Z</time>
      </trkpt>
      <trkpt lat="44.83462" lon="-0.50945">
        <ele>-70.6</ele>
        <time>2018-05-31T08:59:23Z</time>
      </trkpt>
      <trkpt lat="44.83451" lon="-0.50943">
        <ele>-48.8</ele>
        <time>2018-05-31T08:59:28Z</time>
      </trkpt>
      <trkpt lat="44.83439" lon="-0.50946">
        <ele>-26.7</ele>
        <time>2018-05-31T08:59:32Z</time>
      </trkpt>
      <trkpt lat="44.83433" lon="-0.50947">
        <ele>-8.8</ele>
        <time>2018-05-31T08:59:41Z</time>
      </trkpt>
      <trkpt lat="44.83439" lon="-0.50939">
        <ele>8.7</ele>
        <time>2018-05-31T09:00:16Z</time>
      </trkpt>
      <trkpt lat="44.83445" lon="-0.50932">
        <ele>12.6</ele>
        <time>2018-05-31T09:00:36Z</time>
      </trkpt>
      <trkpt lat="44.83454" lon="-0.50929">
        <ele>17.5</ele>
        <time>2018-05-31T09:00:44Z</time>
      </trkpt>
      <trkpt lat="44.83459" lon="-0.50919">
        <ele>11.1</ele>
        <time>2018-05-31T09:00:56Z</time>
      </trkpt>
      <trkpt lat="44.83465" lon="-0.50915">
        <ele>9</ele>
        <time>2018-05-31T09:01:07Z</time>
      </trkpt>
      <trkpt lat="44.83473" lon="-0.50911">
        <ele>3.3</ele>
        <time>2018-05-31T09:01:11Z</time>
      </trkpt>
      <trkpt lat="44.83481" lon="-0.50909">
        <ele>1.9</ele>
        <time>2018-05-31T09:01:18Z</time>
      </trkpt>
      <trkpt lat="44.83488" lon="-0.50904">
        <ele>4.6</ele>
        <time>2018-05-31T09:01:24Z</time>
      </trkpt>
      <trkpt lat="44.83496" lon="-0.50904">
        <ele>7.1</ele>
        <time>2018-05-31T09:01:30Z</time>
      </trkpt>
      <trkpt lat="44.83504" lon="-0.509">
        <ele>11.1</ele>
        <time>2018-05-31T09:01:37Z</time>
      </trkpt>
      <trkpt lat="44.83513" lon="-0.50897">
        <ele>11.9</ele>
        <time>2018-05-31T09:01:44Z</time>
      </trkpt>
      <trkpt lat="44.83516" lon="-0.50886">
        <ele>10.6</ele>
        <time>2018-05-31T09:01:50Z</time>
      </trkpt>
      <trkpt lat="44.83515" lon="-0.50874">
        <ele>12.4</ele>
        <time>2018-05-31T09:01:55Z</time>
      </trkpt>
      <trkpt lat="44.83512" lon="-0.50866">
        <ele>14.1</ele>
        <time>2018-05-31T09:02:01Z</time>
      </trkpt>
      <trkpt lat="44.83506" lon="-0.50857">
        <ele>14.2</ele>
        <time>2018-05-31T09:02:06Z</time>
      </trkpt>
      <trkpt lat="44.83501" lon="-0.50849">
        <ele>14.5</ele>
        <time>2018-05-31T09:02:13Z</time>
      </trkpt>
      <trkpt lat="44.83496" lon="-0.5084">
        <ele>15.6</ele>
        <time>2018-05-31T09:02:18Z</time>
      </trkpt>
      <trkpt lat="44.83488" lon="-0.50835">
        <ele>17.6</ele>
        <time>2018-05-31T09:02:27Z</time>
      </trkpt>
      <trkpt lat="44.83482" lon="-0.5083">
        <ele>17.7</ele>
        <time>2018-05-31T09:02:33Z</time>
      </trkpt>
      <trkpt lat="44.83473" lon="-0.50828">
        <ele>19.8</ele>
        <time>2018-05-31T09:02:41Z</time>
      </trkpt>
      <trkpt lat="44.83465" lon="-0.50827">
        <ele>19</ele>
        <time>2018-05-31T09:02:49Z</time>
      </trkpt>
      <trkpt lat="44.83458" lon="-0.5082">
        <ele>20.6</ele>
        <time>2018-05-31T09:03:07Z</time>
      </trkpt>
      <trkpt lat="44.83461" lon="-0.5081">
        <ele>23.6</ele>
        <time>2018-05-31T09:03:32Z</time>
      </trkpt>
      <trkpt lat="44.83451" lon="-0.50805">
        <ele>19.8</ele>
        <time>2018-05-31T09:03:36Z</time>
      </trkpt>
      <trkpt lat="44.83446" lon="-0.50815">
        <ele>18.5</ele>
        <time>2018-05-31T09:03:57Z</time>
      </trkpt>
      <trkpt lat="44.83438" lon="-0.50818">
        <ele>22.3</ele>
        <time>2018-05-31T09:04:07Z</time>
      </trkpt>
      <trkpt lat="44.8343" lon="-0.50817">
        <ele>22</ele>
        <time>2018-05-31T09:04:15Z</time>
      </trkpt>
      <trkpt lat="44.83421" lon="-0.50818">
        <ele>23.5</ele>
        <time>2018-05-31T09:04:22Z</time>
      </trkpt>
      <trkpt lat="44.83413" lon="-0.50817">
        <ele>19.9</ele>
        <time>2018-05-31T09:04:30Z</time>
      </trkpt>
      <trkpt lat="44.83405" lon="-0.50815">
        <ele>19.4</ele>
        <time>2018-05-31T09:04:39Z</time>
      </trkpt>
      <trkpt lat="44.83398" lon="-0.50812">
        <ele>21.8</ele>
        <time>2018-05-31T09:04:45Z</time>
      </trkpt>
      <trkpt lat="44.83389" lon="-0.50808">
        <ele>24.3</ele>
        <time>2018-05-31T09:04:52Z</time>
      </trkpt>
      <trkpt lat="44.83381" lon="-0.50803">
        <ele>22.6</ele>
        <time>2018-05-31T09:05:04Z</time>
      </trkpt>
      <trkpt lat="44.83376" lon="-0.50793">
        <ele>20.4</ele>
        <time>2018-05-31T09:05:11Z</time>
      </trkpt>
      <trkpt lat="44.83372" lon="-0.50784">
        <ele>19.1</ele>
        <time>2018-05-31T09:05:18Z</time>
      </trkpt>
      <trkpt lat="44.83369" lon="-0.50774">
        <ele>18.7</ele>
        <time>2018-05-31T09:05:24Z</time>
      </trkpt>
      <trkpt lat="44.83366" lon="-0.50762">
        <ele>17.6</ele>
        <time>2018-05-31T09:05:31Z</time>
      </trkpt>
      <trkpt lat="44.8336" lon="-0.50754">
        <ele>16.7</ele>
        <time>2018-05-31T09:05:37Z</time>
      </trkpt>
      <trkpt lat="44.83356" lon="-0.50744">
        <ele>15.5</ele>
        <time>2018-05-31T09:05:42Z</time>
      </trkpt>
      <trkpt lat="44.83351" lon="-0.50733">
        <ele>14.1</ele>
        <time>2018-05-31T09:05:47Z</time>
      </trkpt>
      <trkpt lat="44.83349" lon="-0.50722">
        <ele>12.1</ele>
        <time>2018-05-31T09:05:58Z</time>
      </trkpt>
      <trkpt lat="44.83345" lon="-0.50712">
        <ele>9.6</ele>
        <time>2018-05-31T09:06:05Z</time>
      </trkpt>
      <trkpt lat="44.83342" lon="-0.50702">
        <ele>7.2</ele>
        <time>2018-05-31T09:06:11Z</time>
      </trkpt>
      <trkpt lat="44.83337" lon="-0.50691">
        <ele>6.3</ele>
        <time>2018-05-31T09:06:18Z</time>
      </trkpt>
      <trkpt lat="44.83333" lon="-0.5068">
        <ele>7.4</ele>
        <time>2018-05-31T09:06:27Z</time>
      </trkpt>
      <trkpt lat="44.83326" lon="-0.50679">
        <ele>11</ele>
        <time>2018-05-31T09:06:51Z</time>
      </trkpt>
      <trkpt lat="44.83322" lon="-0.50668">
        <ele>6.5</ele>
        <time>2018-05-31T09:06:59Z</time>
      </trkpt>
      <trkpt lat="44.83318" lon="-0.50657">
        <ele>1.8</ele>
        <time>2018-05-31T09:07:07Z</time>
      </trkpt>
      <trkpt lat="44.8332" lon="-0.50645">
        <ele>-4.4</ele>
        <time>2018-05-31T09:07:14Z</time>
      </trkpt>
      <trkpt lat="44.83313" lon="-0.5064">
        <ele>-1.6</ele>
        <time>2018-05-31T09:07:24Z</time>
      </trkpt>
      <trkpt lat="44.83307" lon="-0.50634">
        <ele>5.6</ele>
        <time>2018-05-31T09:07:30Z</time>
      </trkpt>
      <trkpt lat="44.83301" lon="-0.50631">
        <ele>67.3</ele>
        <time>2018-05-31T09:07:51Z</time>
      </trkpt>
      <trkpt lat="44.83293" lon="-0.50628">
        <ele>-1.6</ele>
        <time>2018-05-31T09:07:58Z</time>
      </trkpt>
      <trkpt lat="44.83287" lon="-0.50619">
        <ele>-4.3</ele>
        <time>2018-05-31T09:08:16Z</time>
      </trkpt>
      <trkpt lat="44.83284" lon="-0.5061">
        <ele>-3.4</ele>
        <time>2018-05-31T09:08:20Z</time>
      </trkpt>
      <trkpt lat="44.83278" lon="-0.50602">
        <ele>-1.5</ele>
        <time>2018-05-31T09:08:24Z</time>
      </trkpt>
      <trkpt lat="44.83273" lon="-0.50594">
        <ele>2.1</ele>
        <time>2018-05-31T09:08:29Z</time>
      </trkpt>
      <trkpt lat="44.83266" lon="-0.50586">
        <ele>7.8</ele>
        <time>2018-05-31T09:08:38Z</time>
      </trkpt>
      <trkpt lat="44.83262" lon="-0.50576">
        <ele>6.9</ele>
        <time>2018-05-31T09:08:45Z</time>
      </trkpt>
      <trkpt lat="44.8326" lon="-0.50564">
        <ele>7.3</ele>
        <time>2018-05-31T09:08:52Z</time>
      </trkpt>
      <trkpt lat="44.83257" lon="-0.50553">
        <ele>7.1</ele>
        <time>2018-05-31T09:09:01Z</time>
      </trkpt>
      <trkpt lat="44.83253" lon="-0.50543">
        <ele>11.4</ele>
        <time>2018-05-31T09:09:31Z</time>
      </trkpt>
      <trkpt lat="44.83255" lon="-0.50531">
        <ele>5.1</ele>
        <time>2018-05-31T09:09:43Z</time>
      </trkpt>
      <trkpt lat="44.83262" lon="-0.50525">
        <ele>12.1</ele>
        <time>2018-05-31T09:09:59Z</time>
      </trkpt>
      <trkpt lat="44.83269" lon="-0.50519">
        <ele>13.6</ele>
        <time>2018-05-31T09:10:06Z</time>
      </trkpt>
      <trkpt lat="44.83275" lon="-0.50507">
        <ele>13.9</ele>
        <time>2018-05-31T09:10:11Z</time>
      </trkpt>
      <trkpt lat="44.83277" lon="-0.50497">
        <ele>13.9</ele>
        <time>2018-05-31T09:10:15Z</time>
      </trkpt>
      <trkpt lat="44.83278" lon="-0.50486">
        <ele>17</ele>
        <time>2018-05-31T09:10:27Z</time>
      </trkpt>
      <trkpt lat="44.83282" lon="-0.50475">
        <ele>21.4</ele>
        <time>2018-05-31T09:10:34Z</time>
      </trkpt>
      <trkpt lat="44.83283" lon="-0.50462">
        <ele>22.4</ele>
        <time>2018-05-31T09:10:45Z</time>
      </trkpt>
      <trkpt lat="44.83287" lon="-0.50453">
        <ele>25.4</ele>
        <time>2018-05-31T09:10:50Z</time>
      </trkpt>
      <trkpt lat="44.83291" lon="-0.50442">
        <ele>24.5</ele>
        <time>2018-05-31T09:10:57Z</time>
      </trkpt>
      <trkpt lat="44.833" lon="-0.50439">
        <ele>15.8</ele>
        <time>2018-05-31T09:11:45Z</time>
      </trkpt>
      <trkpt lat="44.83307" lon="-0.50433">
        <ele>13.6</ele>
        <time>2018-05-31T09:11:52Z</time>
      </trkpt>
      <trkpt lat="44.83313" lon="-0.50427">
        <ele>8.7</ele>
        <time>2018-05-31T09:12:00Z</time>
      </trkpt>
      <trkpt lat="44.83314" lon="-0.50412">
        <ele>10.6</ele>
        <time>2018-05-31T09:12:05Z</time>
      </trkpt>
      <trkpt lat="44.83311" lon="-0.50405">
        <ele>8.7</ele>
        <time>2018-05-31T09:12:23Z</time>
      </trkpt>
      <trkpt lat="44.83319" lon="-0.50405">
        <ele>6.2</ele>
        <time>2018-05-31T09:12:31Z</time>
      </trkpt>
      <trkpt lat="44.83327" lon="-0.5041">
        <ele>9.2</ele>
        <time>2018-05-31T09:12:36Z</time>
      </trkpt>
      <trkpt lat="44.83334" lon="-0.50416">
        <ele>14.7</ele>
        <time>2018-05-31T09:12:42Z</time>
      </trkpt>
      <trkpt lat="44.83341" lon="-0.50422">
        <ele>19.6</ele>
        <time>2018-05-31T09:12:51Z</time>
      </trkpt>
      <trkpt lat="44.83346" lon="-0.50429">
        <ele>15.7</ele>
        <time>2018-05-31T09:12:58Z</time>
      </trkpt>
      <trkpt lat="44.83354" lon="-0.50435">
        <ele>16.5</ele>
        <time>2018-05-31T09:13:05Z</time>
      </trkpt>
      <trkpt lat="44.83361" lon="-0.5044">
        <ele>13.1</ele>
        <time>2018-05-31T09:13:58Z</time>
      </trkpt>
      <trkpt lat="44.83351" lon="-0.50437">
        <ele>10.9</ele>
        <time>2018-05-31T09:14:03Z</time>
      </trkpt>
      <trkpt lat="44.83356" lon="-0.50447">
        <ele>10</ele>
        <time>2018-05-31T09:14:12Z</time>
      </trkpt>
      <trkpt lat="44.83364" lon="-0.5045">
        <ele>7.1</ele>
        <time>2018-05-31T09:14:18Z</time>
      </trkpt>
    </trkseg>
  </trk>
</gpx>